<?xml version="1.0" encoding="UTF-8" standalone="no" ?>
<gpx xmlns="http://www.topografix.com/GPX/1/1" xmlns:xsi="http://www.w3.org/2001/XMLSchema-instance" xsi:schemaLocation="http://www.topografix.com/GPX/1/1 http://www.topografix.com/GPX/1/1/gpx.xsd" version="1.1" creator="VisuGPX - https://www.visugpx.com">
  <metadata>
    <name>83-D-Collobrières</name>
    <desc><![CDATA[83-D-Collobrières : la croix d'Anselme
]]></desc>
  </metadata>
  <trk>
    <name><![CDATA[exp_24-02-19_[nouvelles]]]></name>
    <desc><![CDATA[comment ...]]></desc>
    <trkseg>
      <trkpt lat="43.23793" lon="6.35591">
        <ele>358</ele>
        <time>2019-02-24T08:50:31Z</time>
      </trkpt>
      <trkpt lat="43.23793" lon="6.35591">
        <ele>358</ele>
        <time>2019-02-24T08:50:32Z</time>
      </trkpt>
      <trkpt lat="43.23795" lon="6.35592">
        <ele>356</ele>
        <time>2019-02-24T08:51:16Z</time>
      </trkpt>
      <trkpt lat="43.23795" lon="6.356">
        <ele>353</ele>
        <time>2019-02-24T08:56:32Z</time>
      </trkpt>
      <trkpt lat="43.238" lon="6.35605">
        <ele>353</ele>
        <time>2019-02-24T08:57:10Z</time>
      </trkpt>
      <trkpt lat="43.23793" lon="6.35611">
        <ele>353</ele>
        <time>2019-02-24T08:57:27Z</time>
      </trkpt>
      <trkpt lat="43.23787" lon="6.35609">
        <ele>353</ele>
        <time>2019-02-24T08:57:39Z</time>
      </trkpt>
      <trkpt lat="43.23786" lon="6.35619">
        <ele>350</ele>
        <time>2019-02-24T08:57:51Z</time>
      </trkpt>
      <trkpt lat="43.23784" lon="6.3563">
        <ele>349</ele>
        <time>2019-02-24T08:58:02Z</time>
      </trkpt>
      <trkpt lat="43.23783" lon="6.35642">
        <ele>349</ele>
        <time>2019-02-24T08:58:15Z</time>
      </trkpt>
      <trkpt lat="43.23783" lon="6.35655">
        <ele>350</ele>
        <time>2019-02-24T08:58:35Z</time>
      </trkpt>
      <trkpt lat="43.23781" lon="6.35667">
        <ele>349</ele>
        <time>2019-02-24T08:58:43Z</time>
      </trkpt>
      <trkpt lat="43.23784" lon="6.35678">
        <ele>349</ele>
        <time>2019-02-24T08:58:52Z</time>
      </trkpt>
      <trkpt lat="43.23794" lon="6.35684">
        <ele>348</ele>
        <time>2019-02-24T08:59:04Z</time>
      </trkpt>
      <trkpt lat="43.238" lon="6.35691">
        <ele>346</ele>
        <time>2019-02-24T08:59:12Z</time>
      </trkpt>
      <trkpt lat="43.23808" lon="6.35699">
        <ele>346</ele>
        <time>2019-02-24T08:59:24Z</time>
      </trkpt>
      <trkpt lat="43.23811" lon="6.3571">
        <ele>344</ele>
        <time>2019-02-24T08:59:39Z</time>
      </trkpt>
      <trkpt lat="43.23804" lon="6.35718">
        <ele>344</ele>
        <time>2019-02-24T08:59:52Z</time>
      </trkpt>
      <trkpt lat="43.23797" lon="6.35724">
        <ele>341</ele>
        <time>2019-02-24T09:00:03Z</time>
      </trkpt>
      <trkpt lat="43.2378" lon="6.35737">
        <ele>341</ele>
        <time>2019-02-24T09:00:22Z</time>
      </trkpt>
      <trkpt lat="43.23773" lon="6.35744">
        <ele>340</ele>
        <time>2019-02-24T09:00:37Z</time>
      </trkpt>
      <trkpt lat="43.23767" lon="6.35749">
        <ele>338</ele>
        <time>2019-02-24T09:00:54Z</time>
      </trkpt>
      <trkpt lat="43.2376" lon="6.35756">
        <ele>340</ele>
        <time>2019-02-24T09:01:13Z</time>
      </trkpt>
      <trkpt lat="43.23755" lon="6.35761">
        <ele>340</ele>
        <time>2019-02-24T09:01:40Z</time>
      </trkpt>
      <trkpt lat="43.2375" lon="6.35769">
        <ele>340</ele>
        <time>2019-02-24T09:01:48Z</time>
      </trkpt>
      <trkpt lat="43.2375" lon="6.35781">
        <ele>335</ele>
        <time>2019-02-24T09:02:04Z</time>
      </trkpt>
      <trkpt lat="43.23747" lon="6.35792">
        <ele>334</ele>
        <time>2019-02-24T09:02:15Z</time>
      </trkpt>
      <trkpt lat="43.23747" lon="6.35806">
        <ele>332</ele>
        <time>2019-02-24T09:02:31Z</time>
      </trkpt>
      <trkpt lat="43.23742" lon="6.35831">
        <ele>331</ele>
        <time>2019-02-24T09:02:54Z</time>
      </trkpt>
      <trkpt lat="43.23743" lon="6.35841">
        <ele>331</ele>
        <time>2019-02-24T09:03:02Z</time>
      </trkpt>
      <trkpt lat="43.23741" lon="6.35854">
        <ele>329</ele>
        <time>2019-02-24T09:03:18Z</time>
      </trkpt>
      <trkpt lat="43.23735" lon="6.35863">
        <ele>325</ele>
        <time>2019-02-24T09:03:34Z</time>
      </trkpt>
      <trkpt lat="43.2373" lon="6.35875">
        <ele>324</ele>
        <time>2019-02-24T09:03:44Z</time>
      </trkpt>
      <trkpt lat="43.23724" lon="6.35884">
        <ele>323</ele>
        <time>2019-02-24T09:03:50Z</time>
      </trkpt>
      <trkpt lat="43.23719" lon="6.35894">
        <ele>322</ele>
        <time>2019-02-24T09:03:58Z</time>
      </trkpt>
      <trkpt lat="43.23718" lon="6.35907">
        <ele>320</ele>
        <time>2019-02-24T09:04:06Z</time>
      </trkpt>
      <trkpt lat="43.23708" lon="6.35924">
        <ele>320</ele>
        <time>2019-02-24T09:04:19Z</time>
      </trkpt>
      <trkpt lat="43.23701" lon="6.35933">
        <ele>318</ele>
        <time>2019-02-24T09:04:29Z</time>
      </trkpt>
      <trkpt lat="43.23689" lon="6.35941">
        <ele>318</ele>
        <time>2019-02-24T09:05:02Z</time>
      </trkpt>
      <trkpt lat="43.23683" lon="6.35946">
        <ele>319</ele>
        <time>2019-02-24T09:05:16Z</time>
      </trkpt>
      <trkpt lat="43.23682" lon="6.35955">
        <ele>319</ele>
        <time>2019-02-24T09:05:24Z</time>
      </trkpt>
      <trkpt lat="43.23671" lon="6.35973">
        <ele>320</ele>
        <time>2019-02-24T09:05:46Z</time>
      </trkpt>
      <trkpt lat="43.23664" lon="6.35978">
        <ele>319</ele>
        <time>2019-02-24T09:05:55Z</time>
      </trkpt>
      <trkpt lat="43.23656" lon="6.35984">
        <ele>319</ele>
        <time>2019-02-24T09:06:02Z</time>
      </trkpt>
      <trkpt lat="43.23616" lon="6.35994">
        <ele>317</ele>
        <time>2019-02-24T09:06:37Z</time>
      </trkpt>
      <trkpt lat="43.23607" lon="6.35995">
        <ele>317</ele>
        <time>2019-02-24T09:06:43Z</time>
      </trkpt>
      <trkpt lat="43.23598" lon="6.35999">
        <ele>317</ele>
        <time>2019-02-24T09:06:50Z</time>
      </trkpt>
      <trkpt lat="43.2359" lon="6.36005">
        <ele>317</ele>
        <time>2019-02-24T09:06:59Z</time>
      </trkpt>
      <trkpt lat="43.2358" lon="6.36005">
        <ele>316</ele>
        <time>2019-02-24T09:07:06Z</time>
      </trkpt>
      <trkpt lat="43.23572" lon="6.36004">
        <ele>314</ele>
        <time>2019-02-24T09:07:12Z</time>
      </trkpt>
      <trkpt lat="43.23564" lon="6.3601">
        <ele>313</ele>
        <time>2019-02-24T09:07:20Z</time>
      </trkpt>
      <trkpt lat="43.23555" lon="6.36016">
        <ele>312</ele>
        <time>2019-02-24T09:07:28Z</time>
      </trkpt>
      <trkpt lat="43.23548" lon="6.36018">
        <ele>311</ele>
        <time>2019-02-24T09:07:33Z</time>
      </trkpt>
      <trkpt lat="43.23541" lon="6.36025">
        <ele>311</ele>
        <time>2019-02-24T09:07:40Z</time>
      </trkpt>
      <trkpt lat="43.23534" lon="6.36027">
        <ele>311</ele>
        <time>2019-02-24T09:07:46Z</time>
      </trkpt>
      <trkpt lat="43.23503" lon="6.36056">
        <ele>309</ele>
        <time>2019-02-24T09:08:16Z</time>
      </trkpt>
      <trkpt lat="43.23483" lon="6.36102">
        <ele>312</ele>
        <time>2019-02-24T09:08:46Z</time>
      </trkpt>
      <trkpt lat="43.23465" lon="6.36147">
        <ele>311</ele>
        <time>2019-02-24T09:09:17Z</time>
      </trkpt>
      <trkpt lat="43.23446" lon="6.36203">
        <ele>310</ele>
        <time>2019-02-24T09:09:52Z</time>
      </trkpt>
      <trkpt lat="43.23432" lon="6.36252">
        <ele>310</ele>
        <time>2019-02-24T09:10:23Z</time>
      </trkpt>
      <trkpt lat="43.23427" lon="6.36277">
        <ele>310</ele>
        <time>2019-02-24T09:10:38Z</time>
      </trkpt>
      <trkpt lat="43.23423" lon="6.36326">
        <ele>307</ele>
        <time>2019-02-24T09:11:08Z</time>
      </trkpt>
      <trkpt lat="43.23421" lon="6.36338">
        <ele>307</ele>
        <time>2019-02-24T09:11:15Z</time>
      </trkpt>
      <trkpt lat="43.23415" lon="6.3634">
        <ele>305</ele>
        <time>2019-02-24T09:11:49Z</time>
      </trkpt>
      <trkpt lat="43.23408" lon="6.36333">
        <ele>305</ele>
        <time>2019-02-24T09:13:26Z</time>
      </trkpt>
      <trkpt lat="43.23394" lon="6.36328">
        <ele>306</ele>
        <time>2019-02-24T09:13:44Z</time>
      </trkpt>
      <trkpt lat="43.23387" lon="6.36327">
        <ele>306</ele>
        <time>2019-02-24T09:13:52Z</time>
      </trkpt>
      <trkpt lat="43.23378" lon="6.36325">
        <ele>306</ele>
        <time>2019-02-24T09:14:02Z</time>
      </trkpt>
      <trkpt lat="43.23371" lon="6.36319">
        <ele>308</ele>
        <time>2019-02-24T09:14:16Z</time>
      </trkpt>
      <trkpt lat="43.23362" lon="6.36318">
        <ele>308</ele>
        <time>2019-02-24T09:14:25Z</time>
      </trkpt>
      <trkpt lat="43.23345" lon="6.36317">
        <ele>309</ele>
        <time>2019-02-24T09:14:44Z</time>
      </trkpt>
      <trkpt lat="43.23338" lon="6.3632">
        <ele>311</ele>
        <time>2019-02-24T09:14:54Z</time>
      </trkpt>
      <trkpt lat="43.2333" lon="6.36321">
        <ele>311</ele>
        <time>2019-02-24T09:15:01Z</time>
      </trkpt>
      <trkpt lat="43.23323" lon="6.3632">
        <ele>311</ele>
        <time>2019-02-24T09:15:10Z</time>
      </trkpt>
      <trkpt lat="43.23314" lon="6.36324">
        <ele>314</ele>
        <time>2019-02-24T09:15:21Z</time>
      </trkpt>
      <trkpt lat="43.23306" lon="6.36324">
        <ele>315</ele>
        <time>2019-02-24T09:15:31Z</time>
      </trkpt>
      <trkpt lat="43.23299" lon="6.36327">
        <ele>318</ele>
        <time>2019-02-24T09:15:41Z</time>
      </trkpt>
      <trkpt lat="43.23292" lon="6.36329">
        <ele>319</ele>
        <time>2019-02-24T09:15:50Z</time>
      </trkpt>
      <trkpt lat="43.23285" lon="6.36329">
        <ele>320</ele>
        <time>2019-02-24T09:15:58Z</time>
      </trkpt>
      <trkpt lat="43.23278" lon="6.36327">
        <ele>320</ele>
        <time>2019-02-24T09:16:06Z</time>
      </trkpt>
      <trkpt lat="43.23266" lon="6.36335">
        <ele>322</ele>
        <time>2019-02-24T09:16:34Z</time>
      </trkpt>
      <trkpt lat="43.2326" lon="6.36342">
        <ele>322</ele>
        <time>2019-02-24T09:16:44Z</time>
      </trkpt>
      <trkpt lat="43.23253" lon="6.3635">
        <ele>322</ele>
        <time>2019-02-24T09:16:54Z</time>
      </trkpt>
      <trkpt lat="43.23255" lon="6.36359">
        <ele>320</ele>
        <time>2019-02-24T09:17:00Z</time>
      </trkpt>
      <trkpt lat="43.23261" lon="6.36366">
        <ele>320</ele>
        <time>2019-02-24T09:17:07Z</time>
      </trkpt>
      <trkpt lat="43.23285" lon="6.36373">
        <ele>323</ele>
        <time>2019-02-24T09:17:34Z</time>
      </trkpt>
      <trkpt lat="43.23295" lon="6.36374">
        <ele>325</ele>
        <time>2019-02-24T09:17:45Z</time>
      </trkpt>
      <trkpt lat="43.23303" lon="6.36378">
        <ele>326</ele>
        <time>2019-02-24T09:17:54Z</time>
      </trkpt>
      <trkpt lat="43.233" lon="6.36388">
        <ele>327</ele>
        <time>2019-02-24T09:18:04Z</time>
      </trkpt>
      <trkpt lat="43.23286" lon="6.36389">
        <ele>329</ele>
        <time>2019-02-24T09:18:19Z</time>
      </trkpt>
      <trkpt lat="43.2327" lon="6.36396">
        <ele>333</ele>
        <time>2019-02-24T09:18:37Z</time>
      </trkpt>
      <trkpt lat="43.23264" lon="6.36401">
        <ele>336</ele>
        <time>2019-02-24T09:18:45Z</time>
      </trkpt>
      <trkpt lat="43.23252" lon="6.36412">
        <ele>337</ele>
        <time>2019-02-24T09:18:58Z</time>
      </trkpt>
      <trkpt lat="43.23248" lon="6.36419">
        <ele>338</ele>
        <time>2019-02-24T09:19:05Z</time>
      </trkpt>
      <trkpt lat="43.23244" lon="6.36427">
        <ele>339</ele>
        <time>2019-02-24T09:19:12Z</time>
      </trkpt>
      <trkpt lat="43.23239" lon="6.36444">
        <ele>339</ele>
        <time>2019-02-24T09:19:27Z</time>
      </trkpt>
      <trkpt lat="43.23224" lon="6.36487">
        <ele>342</ele>
        <time>2019-02-24T09:20:03Z</time>
      </trkpt>
      <trkpt lat="43.23219" lon="6.36494">
        <ele>343</ele>
        <time>2019-02-24T09:20:10Z</time>
      </trkpt>
      <trkpt lat="43.23212" lon="6.36499">
        <ele>344</ele>
        <time>2019-02-24T09:20:19Z</time>
      </trkpt>
      <trkpt lat="43.23203" lon="6.36503">
        <ele>346</ele>
        <time>2019-02-24T09:20:29Z</time>
      </trkpt>
      <trkpt lat="43.23208" lon="6.36513">
        <ele>347</ele>
        <time>2019-02-24T09:20:47Z</time>
      </trkpt>
      <trkpt lat="43.23217" lon="6.36511">
        <ele>348</ele>
        <time>2019-02-24T09:20:59Z</time>
      </trkpt>
      <trkpt lat="43.23227" lon="6.3651">
        <ele>349</ele>
        <time>2019-02-24T09:21:08Z</time>
      </trkpt>
      <trkpt lat="43.23235" lon="6.36506">
        <ele>351</ele>
        <time>2019-02-24T09:21:18Z</time>
      </trkpt>
      <trkpt lat="43.23239" lon="6.36498">
        <ele>352</ele>
        <time>2019-02-24T09:21:26Z</time>
      </trkpt>
      <trkpt lat="43.23245" lon="6.36489">
        <ele>352</ele>
        <time>2019-02-24T09:21:37Z</time>
      </trkpt>
      <trkpt lat="43.23249" lon="6.36483">
        <ele>353</ele>
        <time>2019-02-24T09:21:43Z</time>
      </trkpt>
      <trkpt lat="43.23255" lon="6.36474">
        <ele>353</ele>
        <time>2019-02-24T09:21:51Z</time>
      </trkpt>
      <trkpt lat="43.23259" lon="6.36466">
        <ele>354</ele>
        <time>2019-02-24T09:21:58Z</time>
      </trkpt>
      <trkpt lat="43.23268" lon="6.36462">
        <ele>355</ele>
        <time>2019-02-24T09:22:07Z</time>
      </trkpt>
      <trkpt lat="43.23277" lon="6.3646">
        <ele>355</ele>
        <time>2019-02-24T09:22:19Z</time>
      </trkpt>
      <trkpt lat="43.23297" lon="6.36456">
        <ele>357</ele>
        <time>2019-02-24T09:22:38Z</time>
      </trkpt>
      <trkpt lat="43.23305" lon="6.36457">
        <ele>358</ele>
        <time>2019-02-24T09:22:46Z</time>
      </trkpt>
      <trkpt lat="43.23314" lon="6.36462">
        <ele>358</ele>
        <time>2019-02-24T09:22:55Z</time>
      </trkpt>
      <trkpt lat="43.23321" lon="6.36466">
        <ele>357</ele>
        <time>2019-02-24T09:23:02Z</time>
      </trkpt>
      <trkpt lat="43.23328" lon="6.36471">
        <ele>357</ele>
        <time>2019-02-24T09:23:09Z</time>
      </trkpt>
      <trkpt lat="43.23324" lon="6.36481">
        <ele>358</ele>
        <time>2019-02-24T09:23:22Z</time>
      </trkpt>
      <trkpt lat="43.23327" lon="6.36488">
        <ele>360</ele>
        <time>2019-02-24T09:24:54Z</time>
      </trkpt>
      <trkpt lat="43.23322" lon="6.36488">
        <ele>361</ele>
        <time>2019-02-24T09:25:00Z</time>
      </trkpt>
      <trkpt lat="43.23315" lon="6.36481">
        <ele>363</ele>
        <time>2019-02-24T09:26:11Z</time>
      </trkpt>
      <trkpt lat="43.23309" lon="6.36476">
        <ele>362</ele>
        <time>2019-02-24T09:26:27Z</time>
      </trkpt>
      <trkpt lat="43.23303" lon="6.36473">
        <ele>362</ele>
        <time>2019-02-24T09:26:35Z</time>
      </trkpt>
      <trkpt lat="43.23292" lon="6.36475">
        <ele>364</ele>
        <time>2019-02-24T09:26:48Z</time>
      </trkpt>
      <trkpt lat="43.2328" lon="6.3648">
        <ele>365</ele>
        <time>2019-02-24T09:27:01Z</time>
      </trkpt>
      <trkpt lat="43.23274" lon="6.36486">
        <ele>365</ele>
        <time>2019-02-24T09:27:07Z</time>
      </trkpt>
      <trkpt lat="43.23272" lon="6.36494">
        <ele>365</ele>
        <time>2019-02-24T09:27:13Z</time>
      </trkpt>
      <trkpt lat="43.23268" lon="6.36502">
        <ele>364</ele>
        <time>2019-02-24T09:27:19Z</time>
      </trkpt>
      <trkpt lat="43.23269" lon="6.36512">
        <ele>363</ele>
        <time>2019-02-24T09:27:24Z</time>
      </trkpt>
      <trkpt lat="43.2327" lon="6.36528">
        <ele>361</ele>
        <time>2019-02-24T09:27:36Z</time>
      </trkpt>
      <trkpt lat="43.23271" lon="6.36536">
        <ele>360</ele>
        <time>2019-02-24T09:27:42Z</time>
      </trkpt>
      <trkpt lat="43.23266" lon="6.36542">
        <ele>360</ele>
        <time>2019-02-24T09:27:47Z</time>
      </trkpt>
      <trkpt lat="43.2326" lon="6.36549">
        <ele>361</ele>
        <time>2019-02-24T09:27:53Z</time>
      </trkpt>
      <trkpt lat="43.23252" lon="6.3655">
        <ele>361</ele>
        <time>2019-02-24T09:27:59Z</time>
      </trkpt>
      <trkpt lat="43.23247" lon="6.36551">
        <ele>361</ele>
        <time>2019-02-24T09:28:05Z</time>
      </trkpt>
      <trkpt lat="43.2324" lon="6.36555">
        <ele>362</ele>
        <time>2019-02-24T09:28:12Z</time>
      </trkpt>
      <trkpt lat="43.23233" lon="6.36558">
        <ele>364</ele>
        <time>2019-02-24T09:28:18Z</time>
      </trkpt>
      <trkpt lat="43.23217" lon="6.36561">
        <ele>365</ele>
        <time>2019-02-24T09:28:32Z</time>
      </trkpt>
      <trkpt lat="43.23211" lon="6.36562">
        <ele>365</ele>
        <time>2019-02-24T09:28:38Z</time>
      </trkpt>
      <trkpt lat="43.23189" lon="6.3656">
        <ele>364</ele>
        <time>2019-02-24T09:28:57Z</time>
      </trkpt>
      <trkpt lat="43.23174" lon="6.36559">
        <ele>364</ele>
        <time>2019-02-24T09:29:10Z</time>
      </trkpt>
      <trkpt lat="43.23165" lon="6.36562">
        <ele>364</ele>
        <time>2019-02-24T09:29:18Z</time>
      </trkpt>
      <trkpt lat="43.23157" lon="6.36565">
        <ele>366</ele>
        <time>2019-02-24T09:29:27Z</time>
      </trkpt>
      <trkpt lat="43.23152" lon="6.36557">
        <ele>366</ele>
        <time>2019-02-24T09:29:34Z</time>
      </trkpt>
      <trkpt lat="43.23152" lon="6.36535">
        <ele>367</ele>
        <time>2019-02-24T09:29:47Z</time>
      </trkpt>
      <trkpt lat="43.23151" lon="6.36525">
        <ele>367</ele>
        <time>2019-02-24T09:29:53Z</time>
      </trkpt>
      <trkpt lat="43.23149" lon="6.36512">
        <ele>367</ele>
        <time>2019-02-24T09:30:01Z</time>
      </trkpt>
      <trkpt lat="43.23152" lon="6.36501">
        <ele>366</ele>
        <time>2019-02-24T09:30:08Z</time>
      </trkpt>
      <trkpt lat="43.23155" lon="6.36489">
        <ele>365</ele>
        <time>2019-02-24T09:30:16Z</time>
      </trkpt>
      <trkpt lat="43.23156" lon="6.36477">
        <ele>366</ele>
        <time>2019-02-24T09:30:26Z</time>
      </trkpt>
      <trkpt lat="43.23155" lon="6.36465">
        <ele>366</ele>
        <time>2019-02-24T09:30:34Z</time>
      </trkpt>
      <trkpt lat="43.23155" lon="6.36453">
        <ele>368</ele>
        <time>2019-02-24T09:30:40Z</time>
      </trkpt>
      <trkpt lat="43.23153" lon="6.36445">
        <ele>367</ele>
        <time>2019-02-24T09:30:47Z</time>
      </trkpt>
      <trkpt lat="43.23148" lon="6.36437">
        <ele>366</ele>
        <time>2019-02-24T09:30:53Z</time>
      </trkpt>
      <trkpt lat="43.23144" lon="6.36431">
        <ele>365</ele>
        <time>2019-02-24T09:30:58Z</time>
      </trkpt>
      <trkpt lat="43.23138" lon="6.36426">
        <ele>364</ele>
        <time>2019-02-24T09:31:03Z</time>
      </trkpt>
      <trkpt lat="43.23121" lon="6.36418">
        <ele>365</ele>
        <time>2019-02-24T09:31:20Z</time>
      </trkpt>
      <trkpt lat="43.23114" lon="6.36417">
        <ele>365</ele>
        <time>2019-02-24T09:31:25Z</time>
      </trkpt>
      <trkpt lat="43.23107" lon="6.36416">
        <ele>365</ele>
        <time>2019-02-24T09:31:34Z</time>
      </trkpt>
      <trkpt lat="43.23092" lon="6.36418">
        <ele>366</ele>
        <time>2019-02-24T09:31:48Z</time>
      </trkpt>
      <trkpt lat="43.23082" lon="6.36421">
        <ele>366</ele>
        <time>2019-02-24T09:31:57Z</time>
      </trkpt>
      <trkpt lat="43.23079" lon="6.3641">
        <ele>367</ele>
        <time>2019-02-24T09:32:09Z</time>
      </trkpt>
      <trkpt lat="43.23074" lon="6.36404">
        <ele>368</ele>
        <time>2019-02-24T09:32:14Z</time>
      </trkpt>
      <trkpt lat="43.23068" lon="6.36397">
        <ele>368</ele>
        <time>2019-02-24T09:32:19Z</time>
      </trkpt>
      <trkpt lat="43.23062" lon="6.36392">
        <ele>368</ele>
        <time>2019-02-24T09:32:26Z</time>
      </trkpt>
      <trkpt lat="43.23056" lon="6.36387">
        <ele>369</ele>
        <time>2019-02-24T09:32:32Z</time>
      </trkpt>
      <trkpt lat="43.23032" lon="6.36359">
        <ele>373</ele>
        <time>2019-02-24T09:33:01Z</time>
      </trkpt>
      <trkpt lat="43.23024" lon="6.36355">
        <ele>373</ele>
        <time>2019-02-24T09:33:10Z</time>
      </trkpt>
      <trkpt lat="43.23001" lon="6.36354">
        <ele>372</ele>
        <time>2019-02-24T09:33:32Z</time>
      </trkpt>
      <trkpt lat="43.22993" lon="6.36357">
        <ele>371</ele>
        <time>2019-02-24T09:33:38Z</time>
      </trkpt>
      <trkpt lat="43.22988" lon="6.36362">
        <ele>372</ele>
        <time>2019-02-24T09:33:45Z</time>
      </trkpt>
      <trkpt lat="43.22976" lon="6.36373">
        <ele>373</ele>
        <time>2019-02-24T09:33:56Z</time>
      </trkpt>
      <trkpt lat="43.2297" lon="6.36377">
        <ele>375</ele>
        <time>2019-02-24T09:34:02Z</time>
      </trkpt>
      <trkpt lat="43.22949" lon="6.36386">
        <ele>377</ele>
        <time>2019-02-24T09:34:22Z</time>
      </trkpt>
      <trkpt lat="43.22942" lon="6.3639">
        <ele>379</ele>
        <time>2019-02-24T09:34:29Z</time>
      </trkpt>
      <trkpt lat="43.22929" lon="6.36394">
        <ele>381</ele>
        <time>2019-02-24T09:34:40Z</time>
      </trkpt>
      <trkpt lat="43.22899" lon="6.36405">
        <ele>380</ele>
        <time>2019-02-24T09:35:10Z</time>
      </trkpt>
      <trkpt lat="43.22885" lon="6.36406">
        <ele>379</ele>
        <time>2019-02-24T09:35:22Z</time>
      </trkpt>
      <trkpt lat="43.2288" lon="6.36401">
        <ele>377</ele>
        <time>2019-02-24T09:35:28Z</time>
      </trkpt>
      <trkpt lat="43.22882" lon="6.3639">
        <ele>378</ele>
        <time>2019-02-24T09:35:35Z</time>
      </trkpt>
      <trkpt lat="43.22886" lon="6.36384">
        <ele>379</ele>
        <time>2019-02-24T09:35:41Z</time>
      </trkpt>
      <trkpt lat="43.22893" lon="6.36368">
        <ele>378</ele>
        <time>2019-02-24T09:35:55Z</time>
      </trkpt>
      <trkpt lat="43.22897" lon="6.36358">
        <ele>378</ele>
        <time>2019-02-24T09:36:03Z</time>
      </trkpt>
      <trkpt lat="43.22903" lon="6.3635">
        <ele>379</ele>
        <time>2019-02-24T09:36:10Z</time>
      </trkpt>
      <trkpt lat="43.22914" lon="6.36332">
        <ele>378</ele>
        <time>2019-02-24T09:36:25Z</time>
      </trkpt>
      <trkpt lat="43.22919" lon="6.36324">
        <ele>378</ele>
        <time>2019-02-24T09:36:32Z</time>
      </trkpt>
      <trkpt lat="43.22923" lon="6.36314">
        <ele>377</ele>
        <time>2019-02-24T09:36:39Z</time>
      </trkpt>
      <trkpt lat="43.22929" lon="6.36307">
        <ele>377</ele>
        <time>2019-02-24T09:36:48Z</time>
      </trkpt>
      <trkpt lat="43.22931" lon="6.36283">
        <ele>377</ele>
        <time>2019-02-24T09:37:05Z</time>
      </trkpt>
      <trkpt lat="43.22936" lon="6.36272">
        <ele>379</ele>
        <time>2019-02-24T09:37:16Z</time>
      </trkpt>
      <trkpt lat="43.22939" lon="6.36261">
        <ele>380</ele>
        <time>2019-02-24T09:37:23Z</time>
      </trkpt>
      <trkpt lat="43.22949" lon="6.36238">
        <ele>382</ele>
        <time>2019-02-24T09:37:41Z</time>
      </trkpt>
      <trkpt lat="43.22954" lon="6.36228">
        <ele>381</ele>
        <time>2019-02-24T09:37:49Z</time>
      </trkpt>
      <trkpt lat="43.22959" lon="6.3622">
        <ele>382</ele>
        <time>2019-02-24T09:37:57Z</time>
      </trkpt>
      <trkpt lat="43.2296" lon="6.36209">
        <ele>383</ele>
        <time>2019-02-24T09:38:06Z</time>
      </trkpt>
      <trkpt lat="43.22958" lon="6.36196">
        <ele>384</ele>
        <time>2019-02-24T09:38:15Z</time>
      </trkpt>
      <trkpt lat="43.22961" lon="6.36183">
        <ele>385</ele>
        <time>2019-02-24T09:38:27Z</time>
      </trkpt>
      <trkpt lat="43.22964" lon="6.36169">
        <ele>385</ele>
        <time>2019-02-24T09:38:35Z</time>
      </trkpt>
      <trkpt lat="43.22965" lon="6.36156">
        <ele>387</ele>
        <time>2019-02-24T09:38:46Z</time>
      </trkpt>
      <trkpt lat="43.22975" lon="6.3615">
        <ele>391</ele>
        <time>2019-02-24T09:39:00Z</time>
      </trkpt>
      <trkpt lat="43.23012" lon="6.36147">
        <ele>394</ele>
        <time>2019-02-24T09:39:33Z</time>
      </trkpt>
      <trkpt lat="43.23022" lon="6.3615">
        <ele>394</ele>
        <time>2019-02-24T09:39:44Z</time>
      </trkpt>
      <trkpt lat="43.23039" lon="6.36152">
        <ele>394</ele>
        <time>2019-02-24T09:40:01Z</time>
      </trkpt>
      <trkpt lat="43.23047" lon="6.36155">
        <ele>393</ele>
        <time>2019-02-24T09:40:08Z</time>
      </trkpt>
      <trkpt lat="43.23079" lon="6.36149">
        <ele>390</ele>
        <time>2019-02-24T09:40:42Z</time>
      </trkpt>
      <trkpt lat="43.23087" lon="6.36149">
        <ele>390</ele>
        <time>2019-02-24T09:40:48Z</time>
      </trkpt>
      <trkpt lat="43.23095" lon="6.36148">
        <ele>390</ele>
        <time>2019-02-24T09:40:54Z</time>
      </trkpt>
      <trkpt lat="43.2311" lon="6.36145">
        <ele>391</ele>
        <time>2019-02-24T09:41:06Z</time>
      </trkpt>
      <trkpt lat="43.23117" lon="6.36141">
        <ele>391</ele>
        <time>2019-02-24T09:41:12Z</time>
      </trkpt>
      <trkpt lat="43.2313" lon="6.36116">
        <ele>393</ele>
        <time>2019-02-24T09:41:33Z</time>
      </trkpt>
      <trkpt lat="43.23133" lon="6.36095">
        <ele>395</ele>
        <time>2019-02-24T09:41:49Z</time>
      </trkpt>
      <trkpt lat="43.23138" lon="6.36082">
        <ele>398</ele>
        <time>2019-02-24T09:41:59Z</time>
      </trkpt>
      <trkpt lat="43.23138" lon="6.36069">
        <ele>399</ele>
        <time>2019-02-24T09:42:09Z</time>
      </trkpt>
      <trkpt lat="43.23139" lon="6.36057">
        <ele>401</ele>
        <time>2019-02-24T09:42:18Z</time>
      </trkpt>
      <trkpt lat="43.23141" lon="6.36044">
        <ele>401</ele>
        <time>2019-02-24T09:42:26Z</time>
      </trkpt>
      <trkpt lat="43.23142" lon="6.36031">
        <ele>401</ele>
        <time>2019-02-24T09:42:38Z</time>
      </trkpt>
      <trkpt lat="43.23142" lon="6.36018">
        <ele>402</ele>
        <time>2019-02-24T09:42:46Z</time>
      </trkpt>
      <trkpt lat="43.23141" lon="6.36007">
        <ele>402</ele>
        <time>2019-02-24T09:42:53Z</time>
      </trkpt>
      <trkpt lat="43.23142" lon="6.35995">
        <ele>402</ele>
        <time>2019-02-24T09:43:01Z</time>
      </trkpt>
      <trkpt lat="43.23142" lon="6.35982">
        <ele>405</ele>
        <time>2019-02-24T09:43:09Z</time>
      </trkpt>
      <trkpt lat="43.23142" lon="6.35971">
        <ele>406</ele>
        <time>2019-02-24T09:43:16Z</time>
      </trkpt>
      <trkpt lat="43.2314" lon="6.35942">
        <ele>407</ele>
        <time>2019-02-24T09:43:34Z</time>
      </trkpt>
      <trkpt lat="43.23137" lon="6.35911">
        <ele>410</ele>
        <time>2019-02-24T09:43:54Z</time>
      </trkpt>
      <trkpt lat="43.23137" lon="6.35897">
        <ele>410</ele>
        <time>2019-02-24T09:44:04Z</time>
      </trkpt>
      <trkpt lat="43.23143" lon="6.35878">
        <ele>410</ele>
        <time>2019-02-24T09:44:16Z</time>
      </trkpt>
      <trkpt lat="43.23145" lon="6.35866">
        <ele>410</ele>
        <time>2019-02-24T09:44:24Z</time>
      </trkpt>
      <trkpt lat="43.23146" lon="6.35854">
        <ele>410</ele>
        <time>2019-02-24T09:44:31Z</time>
      </trkpt>
      <trkpt lat="43.23151" lon="6.35829">
        <ele>410</ele>
        <time>2019-02-24T09:44:48Z</time>
      </trkpt>
      <trkpt lat="43.23153" lon="6.35817">
        <ele>410</ele>
        <time>2019-02-24T09:44:58Z</time>
      </trkpt>
      <trkpt lat="43.23156" lon="6.35805">
        <ele>411</ele>
        <time>2019-02-24T09:45:05Z</time>
      </trkpt>
      <trkpt lat="43.23157" lon="6.35792">
        <ele>412</ele>
        <time>2019-02-24T09:45:13Z</time>
      </trkpt>
      <trkpt lat="43.23156" lon="6.35778">
        <ele>413</ele>
        <time>2019-02-24T09:45:23Z</time>
      </trkpt>
      <trkpt lat="43.23159" lon="6.35755">
        <ele>412</ele>
        <time>2019-02-24T09:45:39Z</time>
      </trkpt>
      <trkpt lat="43.23162" lon="6.35759">
        <ele>415</ele>
        <time>2019-02-24T09:48:28Z</time>
      </trkpt>
      <trkpt lat="43.23163" lon="6.35752">
        <ele>415</ele>
        <time>2019-02-24T09:48:57Z</time>
      </trkpt>
      <trkpt lat="43.23165" lon="6.35748">
        <ele>413</ele>
        <time>2019-02-24T09:49:06Z</time>
      </trkpt>
      <trkpt lat="43.2317" lon="6.35744">
        <ele>412</ele>
        <time>2019-02-24T09:49:15Z</time>
      </trkpt>
      <trkpt lat="43.23174" lon="6.35737">
        <ele>412</ele>
        <time>2019-02-24T09:49:23Z</time>
      </trkpt>
      <trkpt lat="43.23175" lon="6.3572">
        <ele>413</ele>
        <time>2019-02-24T09:49:37Z</time>
      </trkpt>
      <trkpt lat="43.23177" lon="6.35711">
        <ele>413</ele>
        <time>2019-02-24T09:49:45Z</time>
      </trkpt>
      <trkpt lat="43.2318" lon="6.35702">
        <ele>413</ele>
        <time>2019-02-24T09:49:52Z</time>
      </trkpt>
      <trkpt lat="43.23178" lon="6.35672">
        <ele>414</ele>
        <time>2019-02-24T09:50:13Z</time>
      </trkpt>
      <trkpt lat="43.23179" lon="6.35664">
        <ele>413</ele>
        <time>2019-02-24T09:50:20Z</time>
      </trkpt>
      <trkpt lat="43.2318" lon="6.35645">
        <ele>413</ele>
        <time>2019-02-24T09:50:34Z</time>
      </trkpt>
      <trkpt lat="43.23179" lon="6.35635">
        <ele>414</ele>
        <time>2019-02-24T09:50:41Z</time>
      </trkpt>
      <trkpt lat="43.23178" lon="6.35625">
        <ele>415</ele>
        <time>2019-02-24T09:50:51Z</time>
      </trkpt>
      <trkpt lat="43.23176" lon="6.35615">
        <ele>415</ele>
        <time>2019-02-24T09:50:58Z</time>
      </trkpt>
      <trkpt lat="43.23175" lon="6.35605">
        <ele>415</ele>
        <time>2019-02-24T09:51:05Z</time>
      </trkpt>
      <trkpt lat="43.23173" lon="6.35595">
        <ele>416</ele>
        <time>2019-02-24T09:51:12Z</time>
      </trkpt>
      <trkpt lat="43.2317" lon="6.35585">
        <ele>417</ele>
        <time>2019-02-24T09:51:19Z</time>
      </trkpt>
      <trkpt lat="43.23169" lon="6.35578">
        <ele>417</ele>
        <time>2019-02-24T09:51:25Z</time>
      </trkpt>
      <trkpt lat="43.23171" lon="6.35562">
        <ele>416</ele>
        <time>2019-02-24T09:51:36Z</time>
      </trkpt>
      <trkpt lat="43.23178" lon="6.35555">
        <ele>416</ele>
        <time>2019-02-24T09:51:44Z</time>
      </trkpt>
      <trkpt lat="43.23185" lon="6.35557">
        <ele>416</ele>
        <time>2019-02-24T09:51:50Z</time>
      </trkpt>
      <trkpt lat="43.23193" lon="6.35557">
        <ele>416</ele>
        <time>2019-02-24T09:52:03Z</time>
      </trkpt>
      <trkpt lat="43.23202" lon="6.35557">
        <ele>417</ele>
        <time>2019-02-24T09:52:12Z</time>
      </trkpt>
      <trkpt lat="43.23221" lon="6.35557">
        <ele>419</ele>
        <time>2019-02-24T09:52:29Z</time>
      </trkpt>
      <trkpt lat="43.23229" lon="6.35552">
        <ele>418</ele>
        <time>2019-02-24T09:52:36Z</time>
      </trkpt>
      <trkpt lat="43.23237" lon="6.35551">
        <ele>419</ele>
        <time>2019-02-24T09:52:42Z</time>
      </trkpt>
      <trkpt lat="43.23244" lon="6.35543">
        <ele>420</ele>
        <time>2019-02-24T09:52:53Z</time>
      </trkpt>
      <trkpt lat="43.2325" lon="6.35539">
        <ele>421</ele>
        <time>2019-02-24T09:53:01Z</time>
      </trkpt>
      <trkpt lat="43.23255" lon="6.35534">
        <ele>421</ele>
        <time>2019-02-24T09:53:08Z</time>
      </trkpt>
      <trkpt lat="43.23258" lon="6.35528">
        <ele>421</ele>
        <time>2019-02-24T09:53:13Z</time>
      </trkpt>
      <trkpt lat="43.23261" lon="6.35521">
        <ele>421</ele>
        <time>2019-02-24T09:53:22Z</time>
      </trkpt>
      <trkpt lat="43.23265" lon="6.35516">
        <ele>422</ele>
        <time>2019-02-24T09:53:56Z</time>
      </trkpt>
      <trkpt lat="43.23269" lon="6.35503">
        <ele>421</ele>
        <time>2019-02-24T09:54:06Z</time>
      </trkpt>
      <trkpt lat="43.23274" lon="6.35488">
        <ele>421</ele>
        <time>2019-02-24T09:54:21Z</time>
      </trkpt>
      <trkpt lat="43.2328" lon="6.35478">
        <ele>423</ele>
        <time>2019-02-24T09:54:30Z</time>
      </trkpt>
      <trkpt lat="43.23292" lon="6.35462">
        <ele>426</ele>
        <time>2019-02-24T09:54:45Z</time>
      </trkpt>
      <trkpt lat="43.23296" lon="6.35458">
        <ele>426</ele>
        <time>2019-02-24T09:54:50Z</time>
      </trkpt>
      <trkpt lat="43.23304" lon="6.3545">
        <ele>425</ele>
        <time>2019-02-24T09:55:02Z</time>
      </trkpt>
      <trkpt lat="43.23308" lon="6.35445">
        <ele>424</ele>
        <time>2019-02-24T09:55:09Z</time>
      </trkpt>
      <trkpt lat="43.23316" lon="6.35435">
        <ele>425</ele>
        <time>2019-02-24T09:55:20Z</time>
      </trkpt>
      <trkpt lat="43.23319" lon="6.35427">
        <ele>426</ele>
        <time>2019-02-24T09:55:28Z</time>
      </trkpt>
      <trkpt lat="43.23321" lon="6.35421">
        <ele>426</ele>
        <time>2019-02-24T09:55:34Z</time>
      </trkpt>
      <trkpt lat="43.23321" lon="6.35419">
        <ele>428</ele>
        <time>2019-02-24T09:57:43Z</time>
      </trkpt>
      <trkpt lat="43.23322" lon="6.35426">
        <ele>428</ele>
        <time>2019-02-24T10:00:59Z</time>
      </trkpt>
      <trkpt lat="43.2332" lon="6.35431">
        <ele>428</ele>
        <time>2019-02-24T10:01:03Z</time>
      </trkpt>
      <trkpt lat="43.23314" lon="6.3544">
        <ele>427</ele>
        <time>2019-02-24T10:01:13Z</time>
      </trkpt>
      <trkpt lat="43.23308" lon="6.35447">
        <ele>426</ele>
        <time>2019-02-24T10:01:24Z</time>
      </trkpt>
      <trkpt lat="43.23284" lon="6.35471">
        <ele>428</ele>
        <time>2019-02-24T10:01:51Z</time>
      </trkpt>
      <trkpt lat="43.2327" lon="6.35502">
        <ele>426</ele>
        <time>2019-02-24T10:02:24Z</time>
      </trkpt>
      <trkpt lat="43.23258" lon="6.35526">
        <ele>425</ele>
        <time>2019-02-24T10:02:42Z</time>
      </trkpt>
      <trkpt lat="43.23256" lon="6.35532">
        <ele>425</ele>
        <time>2019-02-24T10:02:48Z</time>
      </trkpt>
      <trkpt lat="43.23253" lon="6.35538">
        <ele>425</ele>
        <time>2019-02-24T10:02:56Z</time>
      </trkpt>
      <trkpt lat="43.23248" lon="6.35542">
        <ele>424</ele>
        <time>2019-02-24T10:03:03Z</time>
      </trkpt>
      <trkpt lat="43.23237" lon="6.35548">
        <ele>424</ele>
        <time>2019-02-24T10:03:19Z</time>
      </trkpt>
      <trkpt lat="43.23227" lon="6.35557">
        <ele>424</ele>
        <time>2019-02-24T10:03:33Z</time>
      </trkpt>
      <trkpt lat="43.23221" lon="6.35558">
        <ele>426</ele>
        <time>2019-02-24T10:03:39Z</time>
      </trkpt>
      <trkpt lat="43.23207" lon="6.35559">
        <ele>425</ele>
        <time>2019-02-24T10:03:53Z</time>
      </trkpt>
      <trkpt lat="43.23201" lon="6.35558">
        <ele>425</ele>
        <time>2019-02-24T10:04:00Z</time>
      </trkpt>
      <trkpt lat="43.23195" lon="6.35558">
        <ele>425</ele>
        <time>2019-02-24T10:04:04Z</time>
      </trkpt>
      <trkpt lat="43.23183" lon="6.35558">
        <ele>423</ele>
        <time>2019-02-24T10:04:17Z</time>
      </trkpt>
      <trkpt lat="43.23177" lon="6.35559">
        <ele>422</ele>
        <time>2019-02-24T10:04:23Z</time>
      </trkpt>
      <trkpt lat="43.23171" lon="6.35561">
        <ele>420</ele>
        <time>2019-02-24T10:04:29Z</time>
      </trkpt>
      <trkpt lat="43.23168" lon="6.35566">
        <ele>419</ele>
        <time>2019-02-24T10:04:34Z</time>
      </trkpt>
      <trkpt lat="43.23171" lon="6.35586">
        <ele>415</ele>
        <time>2019-02-24T10:04:51Z</time>
      </trkpt>
      <trkpt lat="43.23175" lon="6.35594">
        <ele>414</ele>
        <time>2019-02-24T10:04:57Z</time>
      </trkpt>
      <trkpt lat="43.23181" lon="6.35609">
        <ele>414</ele>
        <time>2019-02-24T10:05:12Z</time>
      </trkpt>
      <trkpt lat="43.23181" lon="6.35619">
        <ele>415</ele>
        <time>2019-02-24T10:05:20Z</time>
      </trkpt>
      <trkpt lat="43.2318" lon="6.35626">
        <ele>416</ele>
        <time>2019-02-24T10:05:24Z</time>
      </trkpt>
      <trkpt lat="43.23181" lon="6.35634">
        <ele>416</ele>
        <time>2019-02-24T10:05:29Z</time>
      </trkpt>
      <trkpt lat="43.2318" lon="6.35658">
        <ele>415</ele>
        <time>2019-02-24T10:05:44Z</time>
      </trkpt>
      <trkpt lat="43.23178" lon="6.35671">
        <ele>412</ele>
        <time>2019-02-24T10:05:52Z</time>
      </trkpt>
      <trkpt lat="43.23181" lon="6.35695">
        <ele>411</ele>
        <time>2019-02-24T10:06:11Z</time>
      </trkpt>
      <trkpt lat="43.23181" lon="6.35703">
        <ele>412</ele>
        <time>2019-02-24T10:06:17Z</time>
      </trkpt>
      <trkpt lat="43.23182" lon="6.35722">
        <ele>414</ele>
        <time>2019-02-24T10:06:29Z</time>
      </trkpt>
      <trkpt lat="43.23179" lon="6.35729">
        <ele>416</ele>
        <time>2019-02-24T10:06:36Z</time>
      </trkpt>
      <trkpt lat="43.23173" lon="6.35734">
        <ele>416</ele>
        <time>2019-02-24T10:06:43Z</time>
      </trkpt>
      <trkpt lat="43.23166" lon="6.35732">
        <ele>417</ele>
        <time>2019-02-24T10:06:49Z</time>
      </trkpt>
      <trkpt lat="43.2316" lon="6.35728">
        <ele>417</ele>
        <time>2019-02-24T10:06:54Z</time>
      </trkpt>
      <trkpt lat="43.23154" lon="6.35726">
        <ele>417</ele>
        <time>2019-02-24T10:06:59Z</time>
      </trkpt>
      <trkpt lat="43.23148" lon="6.35721">
        <ele>417</ele>
        <time>2019-02-24T10:07:04Z</time>
      </trkpt>
      <trkpt lat="43.23142" lon="6.35718">
        <ele>417</ele>
        <time>2019-02-24T10:07:10Z</time>
      </trkpt>
      <trkpt lat="43.23139" lon="6.35716">
        <ele>418</ele>
        <time>2019-02-24T10:07:22Z</time>
      </trkpt>
      <trkpt lat="43.23135" lon="6.35714">
        <ele>419</ele>
        <time>2019-02-24T10:07:44Z</time>
      </trkpt>
      <trkpt lat="43.23131" lon="6.35712">
        <ele>419</ele>
        <time>2019-02-24T10:07:50Z</time>
      </trkpt>
      <trkpt lat="43.23121" lon="6.35717">
        <ele>422</ele>
        <time>2019-02-24T10:08:01Z</time>
      </trkpt>
      <trkpt lat="43.23109" lon="6.35718">
        <ele>424</ele>
        <time>2019-02-24T10:08:11Z</time>
      </trkpt>
      <trkpt lat="43.23104" lon="6.3572">
        <ele>426</ele>
        <time>2019-02-24T10:08:16Z</time>
      </trkpt>
      <trkpt lat="43.231" lon="6.35723">
        <ele>427</ele>
        <time>2019-02-24T10:08:20Z</time>
      </trkpt>
      <trkpt lat="43.23094" lon="6.35726">
        <ele>428</ele>
        <time>2019-02-24T10:08:25Z</time>
      </trkpt>
      <trkpt lat="43.23087" lon="6.35728">
        <ele>429</ele>
        <time>2019-02-24T10:08:33Z</time>
      </trkpt>
      <trkpt lat="43.23052" lon="6.35731">
        <ele>430</ele>
        <time>2019-02-24T10:09:05Z</time>
      </trkpt>
      <trkpt lat="43.23035" lon="6.35731">
        <ele>430</ele>
        <time>2019-02-24T10:09:21Z</time>
      </trkpt>
      <trkpt lat="43.23023" lon="6.35732">
        <ele>431</ele>
        <time>2019-02-24T10:09:30Z</time>
      </trkpt>
      <trkpt lat="43.23018" lon="6.35731">
        <ele>430</ele>
        <time>2019-02-24T10:09:34Z</time>
      </trkpt>
      <trkpt lat="43.23012" lon="6.35732">
        <ele>429</ele>
        <time>2019-02-24T10:09:38Z</time>
      </trkpt>
      <trkpt lat="43.23006" lon="6.35729">
        <ele>429</ele>
        <time>2019-02-24T10:09:45Z</time>
      </trkpt>
      <trkpt lat="43.22993" lon="6.35724">
        <ele>430</ele>
        <time>2019-02-24T10:09:56Z</time>
      </trkpt>
      <trkpt lat="43.22981" lon="6.35715">
        <ele>432</ele>
        <time>2019-02-24T10:10:06Z</time>
      </trkpt>
      <trkpt lat="43.22976" lon="6.3571">
        <ele>433</ele>
        <time>2019-02-24T10:10:11Z</time>
      </trkpt>
      <trkpt lat="43.22968" lon="6.35689">
        <ele>434</ele>
        <time>2019-02-24T10:10:24Z</time>
      </trkpt>
      <trkpt lat="43.22961" lon="6.35678">
        <ele>433</ele>
        <time>2019-02-24T10:10:34Z</time>
      </trkpt>
      <trkpt lat="43.22958" lon="6.35673">
        <ele>433</ele>
        <time>2019-02-24T10:10:39Z</time>
      </trkpt>
      <trkpt lat="43.22947" lon="6.35668">
        <ele>433</ele>
        <time>2019-02-24T10:10:48Z</time>
      </trkpt>
      <trkpt lat="43.22928" lon="6.35665">
        <ele>434</ele>
        <time>2019-02-24T10:11:05Z</time>
      </trkpt>
      <trkpt lat="43.22922" lon="6.35665">
        <ele>434</ele>
        <time>2019-02-24T10:11:10Z</time>
      </trkpt>
      <trkpt lat="43.22909" lon="6.35662">
        <ele>435</ele>
        <time>2019-02-24T10:11:20Z</time>
      </trkpt>
      <trkpt lat="43.22897" lon="6.35655">
        <ele>435</ele>
        <time>2019-02-24T10:11:31Z</time>
      </trkpt>
      <trkpt lat="43.22886" lon="6.35649">
        <ele>436</ele>
        <time>2019-02-24T10:11:42Z</time>
      </trkpt>
      <trkpt lat="43.2288" lon="6.35644">
        <ele>436</ele>
        <time>2019-02-24T10:11:47Z</time>
      </trkpt>
      <trkpt lat="43.22865" lon="6.35645">
        <ele>437</ele>
        <time>2019-02-24T10:12:05Z</time>
      </trkpt>
      <trkpt lat="43.22861" lon="6.35652">
        <ele>436</ele>
        <time>2019-02-24T10:12:11Z</time>
      </trkpt>
      <trkpt lat="43.22861" lon="6.35661">
        <ele>434</ele>
        <time>2019-02-24T10:12:16Z</time>
      </trkpt>
      <trkpt lat="43.22864" lon="6.35667">
        <ele>429</ele>
        <time>2019-02-24T10:12:22Z</time>
      </trkpt>
      <trkpt lat="43.22873" lon="6.35679">
        <ele>428</ele>
        <time>2019-02-24T10:12:37Z</time>
      </trkpt>
      <trkpt lat="43.22876" lon="6.35687">
        <ele>429</ele>
        <time>2019-02-24T10:12:43Z</time>
      </trkpt>
      <trkpt lat="43.22887" lon="6.35696">
        <ele>431</ele>
        <time>2019-02-24T10:12:53Z</time>
      </trkpt>
      <trkpt lat="43.22895" lon="6.3571">
        <ele>433</ele>
        <time>2019-02-24T10:13:06Z</time>
      </trkpt>
      <trkpt lat="43.22896" lon="6.35719">
        <ele>433</ele>
        <time>2019-02-24T10:13:10Z</time>
      </trkpt>
      <trkpt lat="43.22896" lon="6.35753">
        <ele>436</ele>
        <time>2019-02-24T10:13:34Z</time>
      </trkpt>
      <trkpt lat="43.22895" lon="6.35773">
        <ele>439</ele>
        <time>2019-02-24T10:13:46Z</time>
      </trkpt>
      <trkpt lat="43.22893" lon="6.35781">
        <ele>440</ele>
        <time>2019-02-24T10:13:52Z</time>
      </trkpt>
      <trkpt lat="43.22888" lon="6.35794">
        <ele>443</ele>
        <time>2019-02-24T10:14:02Z</time>
      </trkpt>
      <trkpt lat="43.22886" lon="6.35801">
        <ele>443</ele>
        <time>2019-02-24T10:14:07Z</time>
      </trkpt>
      <trkpt lat="43.2288" lon="6.35817">
        <ele>444</ele>
        <time>2019-02-24T10:14:17Z</time>
      </trkpt>
      <trkpt lat="43.22877" lon="6.35824">
        <ele>445</ele>
        <time>2019-02-24T10:14:23Z</time>
      </trkpt>
      <trkpt lat="43.22874" lon="6.35832">
        <ele>445</ele>
        <time>2019-02-24T10:14:29Z</time>
      </trkpt>
      <trkpt lat="43.22871" lon="6.35839">
        <ele>445</ele>
        <time>2019-02-24T10:14:35Z</time>
      </trkpt>
      <trkpt lat="43.22867" lon="6.35865">
        <ele>448</ele>
        <time>2019-02-24T10:14:55Z</time>
      </trkpt>
      <trkpt lat="43.22857" lon="6.35877">
        <ele>450</ele>
        <time>2019-02-24T10:15:05Z</time>
      </trkpt>
      <trkpt lat="43.22836" lon="6.35884">
        <ele>450</ele>
        <time>2019-02-24T10:15:22Z</time>
      </trkpt>
      <trkpt lat="43.22822" lon="6.35884">
        <ele>451</ele>
        <time>2019-02-24T10:15:31Z</time>
      </trkpt>
      <trkpt lat="43.22814" lon="6.35879">
        <ele>449</ele>
        <time>2019-02-24T10:15:41Z</time>
      </trkpt>
      <trkpt lat="43.22804" lon="6.35878">
        <ele>447</ele>
        <time>2019-02-24T10:15:49Z</time>
      </trkpt>
      <trkpt lat="43.22795" lon="6.35873">
        <ele>447</ele>
        <time>2019-02-24T10:15:57Z</time>
      </trkpt>
      <trkpt lat="43.22783" lon="6.35869">
        <ele>447</ele>
        <time>2019-02-24T10:16:08Z</time>
      </trkpt>
      <trkpt lat="43.22773" lon="6.35867">
        <ele>447</ele>
        <time>2019-02-24T10:16:17Z</time>
      </trkpt>
      <trkpt lat="43.2273" lon="6.3585">
        <ele>447</ele>
        <time>2019-02-24T10:16:53Z</time>
      </trkpt>
      <trkpt lat="43.22714" lon="6.35832">
        <ele>444</ele>
        <time>2019-02-24T10:17:16Z</time>
      </trkpt>
      <trkpt lat="43.22705" lon="6.35814">
        <ele>446</ele>
        <time>2019-02-24T10:17:31Z</time>
      </trkpt>
      <trkpt lat="43.22697" lon="6.35803">
        <ele>447</ele>
        <time>2019-02-24T10:17:42Z</time>
      </trkpt>
      <trkpt lat="43.22691" lon="6.35794">
        <ele>446</ele>
        <time>2019-02-24T10:17:49Z</time>
      </trkpt>
      <trkpt lat="43.22684" lon="6.35785">
        <ele>448</ele>
        <time>2019-02-24T10:18:00Z</time>
      </trkpt>
      <trkpt lat="43.2267" lon="6.35768">
        <ele>448</ele>
        <time>2019-02-24T10:18:17Z</time>
      </trkpt>
      <trkpt lat="43.22662" lon="6.3575">
        <ele>448</ele>
        <time>2019-02-24T10:18:53Z</time>
      </trkpt>
      <trkpt lat="43.2266" lon="6.35732">
        <ele>449</ele>
        <time>2019-02-24T10:19:30Z</time>
      </trkpt>
      <trkpt lat="43.2266" lon="6.35718">
        <ele>447</ele>
        <time>2019-02-24T10:19:46Z</time>
      </trkpt>
      <trkpt lat="43.22657" lon="6.35707">
        <ele>447</ele>
        <time>2019-02-24T10:20:01Z</time>
      </trkpt>
      <trkpt lat="43.22654" lon="6.35694">
        <ele>446</ele>
        <time>2019-02-24T10:20:14Z</time>
      </trkpt>
      <trkpt lat="43.22646" lon="6.35672">
        <ele>447</ele>
        <time>2019-02-24T10:20:34Z</time>
      </trkpt>
      <trkpt lat="43.22648" lon="6.3566">
        <ele>447</ele>
        <time>2019-02-24T10:21:45Z</time>
      </trkpt>
      <trkpt lat="43.2265" lon="6.35649">
        <ele>443</ele>
        <time>2019-02-24T10:22:16Z</time>
      </trkpt>
      <trkpt lat="43.22651" lon="6.35638">
        <ele>444</ele>
        <time>2019-02-24T10:22:40Z</time>
      </trkpt>
      <trkpt lat="43.22653" lon="6.35625">
        <ele>445</ele>
        <time>2019-02-24T10:22:59Z</time>
      </trkpt>
      <trkpt lat="43.22647" lon="6.35615">
        <ele>447</ele>
        <time>2019-02-24T10:23:18Z</time>
      </trkpt>
      <trkpt lat="43.22642" lon="6.35601">
        <ele>450</ele>
        <time>2019-02-24T10:23:41Z</time>
      </trkpt>
      <trkpt lat="43.22635" lon="6.35593">
        <ele>449</ele>
        <time>2019-02-24T10:23:57Z</time>
      </trkpt>
      <trkpt lat="43.22632" lon="6.35578">
        <ele>447</ele>
        <time>2019-02-24T10:24:27Z</time>
      </trkpt>
      <trkpt lat="43.22626" lon="6.35566">
        <ele>449</ele>
        <time>2019-02-24T10:24:45Z</time>
      </trkpt>
      <trkpt lat="43.2262" lon="6.35556">
        <ele>453</ele>
        <time>2019-02-24T10:25:12Z</time>
      </trkpt>
      <trkpt lat="43.2262" lon="6.3554">
        <ele>450</ele>
        <time>2019-02-24T10:25:42Z</time>
      </trkpt>
      <trkpt lat="43.22617" lon="6.35533">
        <ele>448</ele>
        <time>2019-02-24T10:26:01Z</time>
      </trkpt>
      <trkpt lat="43.22608" lon="6.35528">
        <ele>448</ele>
        <time>2019-02-24T10:26:40Z</time>
      </trkpt>
      <trkpt lat="43.22608" lon="6.35516">
        <ele>447</ele>
        <time>2019-02-24T10:26:54Z</time>
      </trkpt>
      <trkpt lat="43.22608" lon="6.35505">
        <ele>451</ele>
        <time>2019-02-24T10:28:02Z</time>
      </trkpt>
      <trkpt lat="43.226" lon="6.35502">
        <ele>453</ele>
        <time>2019-02-24T10:29:03Z</time>
      </trkpt>
      <trkpt lat="43.22592" lon="6.35503">
        <ele>450</ele>
        <time>2019-02-24T10:29:15Z</time>
      </trkpt>
      <trkpt lat="43.22591" lon="6.35506">
        <ele>442</ele>
        <time>2019-02-24T10:30:03Z</time>
      </trkpt>
      <trkpt lat="43.2259" lon="6.35504">
        <ele>442</ele>
        <time>2019-02-24T10:31:00Z</time>
      </trkpt>
      <trkpt lat="43.22598" lon="6.35498">
        <ele>443</ele>
        <time>2019-02-24T10:31:48Z</time>
      </trkpt>
      <trkpt lat="43.22597" lon="6.35489">
        <ele>444</ele>
        <time>2019-02-24T10:31:59Z</time>
      </trkpt>
      <trkpt lat="43.22594" lon="6.35482">
        <ele>445</ele>
        <time>2019-02-24T10:32:14Z</time>
      </trkpt>
      <trkpt lat="43.22588" lon="6.35464">
        <ele>446</ele>
        <time>2019-02-24T10:32:38Z</time>
      </trkpt>
      <trkpt lat="43.22586" lon="6.35455">
        <ele>447</ele>
        <time>2019-02-24T10:32:47Z</time>
      </trkpt>
      <trkpt lat="43.22586" lon="6.35445">
        <ele>449</ele>
        <time>2019-02-24T10:32:56Z</time>
      </trkpt>
      <trkpt lat="43.22592" lon="6.35438">
        <ele>448</ele>
        <time>2019-02-24T10:33:04Z</time>
      </trkpt>
      <trkpt lat="43.226" lon="6.35438">
        <ele>446</ele>
        <time>2019-02-24T10:33:38Z</time>
      </trkpt>
      <trkpt lat="43.22601" lon="6.3543">
        <ele>448</ele>
        <time>2019-02-24T10:33:59Z</time>
      </trkpt>
      <trkpt lat="43.22602" lon="6.3542">
        <ele>450</ele>
        <time>2019-02-24T10:34:06Z</time>
      </trkpt>
      <trkpt lat="43.22604" lon="6.3541">
        <ele>450</ele>
        <time>2019-02-24T10:34:14Z</time>
      </trkpt>
      <trkpt lat="43.22608" lon="6.35398">
        <ele>450</ele>
        <time>2019-02-24T10:34:21Z</time>
      </trkpt>
      <trkpt lat="43.22611" lon="6.35388">
        <ele>450</ele>
        <time>2019-02-24T10:34:29Z</time>
      </trkpt>
      <trkpt lat="43.22613" lon="6.35367">
        <ele>450</ele>
        <time>2019-02-24T10:34:40Z</time>
      </trkpt>
      <trkpt lat="43.22601" lon="6.35306">
        <ele>446</ele>
        <time>2019-02-24T10:35:13Z</time>
      </trkpt>
      <trkpt lat="43.22599" lon="6.35296">
        <ele>447</ele>
        <time>2019-02-24T10:35:19Z</time>
      </trkpt>
      <trkpt lat="43.22596" lon="6.35288">
        <ele>449</ele>
        <time>2019-02-24T10:35:26Z</time>
      </trkpt>
      <trkpt lat="43.22588" lon="6.35265">
        <ele>452</ele>
        <time>2019-02-24T10:35:39Z</time>
      </trkpt>
      <trkpt lat="43.22583" lon="6.35256">
        <ele>453</ele>
        <time>2019-02-24T10:35:46Z</time>
      </trkpt>
      <trkpt lat="43.2258" lon="6.35245">
        <ele>454</ele>
        <time>2019-02-24T10:35:52Z</time>
      </trkpt>
      <trkpt lat="43.22575" lon="6.35227">
        <ele>451</ele>
        <time>2019-02-24T10:36:03Z</time>
      </trkpt>
      <trkpt lat="43.22564" lon="6.35178">
        <ele>447</ele>
        <time>2019-02-24T10:36:34Z</time>
      </trkpt>
      <trkpt lat="43.22559" lon="6.35168">
        <ele>447</ele>
        <time>2019-02-24T10:36:41Z</time>
      </trkpt>
      <trkpt lat="43.22546" lon="6.35165">
        <ele>447</ele>
        <time>2019-02-24T10:36:53Z</time>
      </trkpt>
      <trkpt lat="43.22532" lon="6.35165">
        <ele>446</ele>
        <time>2019-02-24T10:37:04Z</time>
      </trkpt>
      <trkpt lat="43.22525" lon="6.35162">
        <ele>444</ele>
        <time>2019-02-24T10:37:12Z</time>
      </trkpt>
      <trkpt lat="43.22517" lon="6.35153">
        <ele>444</ele>
        <time>2019-02-24T10:37:21Z</time>
      </trkpt>
      <trkpt lat="43.22509" lon="6.3515">
        <ele>444</ele>
        <time>2019-02-24T10:37:29Z</time>
      </trkpt>
      <trkpt lat="43.22501" lon="6.3515">
        <ele>443</ele>
        <time>2019-02-24T10:37:36Z</time>
      </trkpt>
      <trkpt lat="43.225" lon="6.35143">
        <ele>445</ele>
        <time>2019-02-24T10:37:51Z</time>
      </trkpt>
      <trkpt lat="43.22496" lon="6.35134">
        <ele>449</ele>
        <time>2019-02-24T10:39:11Z</time>
      </trkpt>
      <trkpt lat="43.22488" lon="6.35133">
        <ele>449</ele>
        <time>2019-02-24T10:39:18Z</time>
      </trkpt>
      <trkpt lat="43.22457" lon="6.35102">
        <ele>449</ele>
        <time>2019-02-24T10:39:57Z</time>
      </trkpt>
      <trkpt lat="43.22449" lon="6.35095">
        <ele>449</ele>
        <time>2019-02-24T10:40:03Z</time>
      </trkpt>
      <trkpt lat="43.22441" lon="6.3509">
        <ele>450</ele>
        <time>2019-02-24T10:40:09Z</time>
      </trkpt>
      <trkpt lat="43.22425" lon="6.35082">
        <ele>449</ele>
        <time>2019-02-24T10:40:22Z</time>
      </trkpt>
      <trkpt lat="43.22387" lon="6.35073">
        <ele>450</ele>
        <time>2019-02-24T10:40:54Z</time>
      </trkpt>
      <trkpt lat="43.22379" lon="6.35073">
        <ele>450</ele>
        <time>2019-02-24T10:41:01Z</time>
      </trkpt>
      <trkpt lat="43.22356" lon="6.35068">
        <ele>450</ele>
        <time>2019-02-24T10:41:22Z</time>
      </trkpt>
      <trkpt lat="43.2235" lon="6.35063">
        <ele>450</ele>
        <time>2019-02-24T10:41:29Z</time>
      </trkpt>
      <trkpt lat="43.22341" lon="6.35059">
        <ele>450</ele>
        <time>2019-02-24T10:41:38Z</time>
      </trkpt>
      <trkpt lat="43.22332" lon="6.35056">
        <ele>452</ele>
        <time>2019-02-24T10:41:45Z</time>
      </trkpt>
      <trkpt lat="43.22324" lon="6.35052">
        <ele>453</ele>
        <time>2019-02-24T10:41:53Z</time>
      </trkpt>
      <trkpt lat="43.22316" lon="6.35046">
        <ele>452</ele>
        <time>2019-02-24T10:42:01Z</time>
      </trkpt>
      <trkpt lat="43.22309" lon="6.35039">
        <ele>452</ele>
        <time>2019-02-24T10:42:11Z</time>
      </trkpt>
      <trkpt lat="43.22302" lon="6.35034">
        <ele>452</ele>
        <time>2019-02-24T10:42:16Z</time>
      </trkpt>
      <trkpt lat="43.22285" lon="6.35026">
        <ele>453</ele>
        <time>2019-02-24T10:42:30Z</time>
      </trkpt>
      <trkpt lat="43.22278" lon="6.3502">
        <ele>454</ele>
        <time>2019-02-24T10:42:38Z</time>
      </trkpt>
      <trkpt lat="43.22267" lon="6.35005">
        <ele>453</ele>
        <time>2019-02-24T10:42:50Z</time>
      </trkpt>
      <trkpt lat="43.22257" lon="6.34987">
        <ele>451</ele>
        <time>2019-02-24T10:43:03Z</time>
      </trkpt>
      <trkpt lat="43.2224" lon="6.34963">
        <ele>450</ele>
        <time>2019-02-24T10:43:22Z</time>
      </trkpt>
      <trkpt lat="43.22236" lon="6.34954">
        <ele>450</ele>
        <time>2019-02-24T10:43:28Z</time>
      </trkpt>
      <trkpt lat="43.22229" lon="6.34949">
        <ele>452</ele>
        <time>2019-02-24T10:43:34Z</time>
      </trkpt>
      <trkpt lat="43.22221" lon="6.34946">
        <ele>453</ele>
        <time>2019-02-24T10:43:41Z</time>
      </trkpt>
      <trkpt lat="43.22215" lon="6.3494">
        <ele>453</ele>
        <time>2019-02-24T10:43:48Z</time>
      </trkpt>
      <trkpt lat="43.22202" lon="6.34914">
        <ele>454</ele>
        <time>2019-02-24T10:44:04Z</time>
      </trkpt>
      <trkpt lat="43.22198" lon="6.34906">
        <ele>454</ele>
        <time>2019-02-24T10:44:08Z</time>
      </trkpt>
      <trkpt lat="43.22179" lon="6.34863">
        <ele>455</ele>
        <time>2019-02-24T10:44:41Z</time>
      </trkpt>
      <trkpt lat="43.2217" lon="6.34845">
        <ele>457</ele>
        <time>2019-02-24T10:44:56Z</time>
      </trkpt>
      <trkpt lat="43.22152" lon="6.34822">
        <ele>456</ele>
        <time>2019-02-24T10:45:12Z</time>
      </trkpt>
      <trkpt lat="43.22148" lon="6.34815">
        <ele>456</ele>
        <time>2019-02-24T10:45:18Z</time>
      </trkpt>
      <trkpt lat="43.22138" lon="6.3481">
        <ele>455</ele>
        <time>2019-02-24T10:45:25Z</time>
      </trkpt>
      <trkpt lat="43.22134" lon="6.34801">
        <ele>455</ele>
        <time>2019-02-24T10:45:33Z</time>
      </trkpt>
      <trkpt lat="43.22112" lon="6.34756">
        <ele>459</ele>
        <time>2019-02-24T10:46:06Z</time>
      </trkpt>
      <trkpt lat="43.22103" lon="6.34739">
        <ele>461</ele>
        <time>2019-02-24T10:46:20Z</time>
      </trkpt>
      <trkpt lat="43.221" lon="6.34729">
        <ele>462</ele>
        <time>2019-02-24T10:46:25Z</time>
      </trkpt>
      <trkpt lat="43.22093" lon="6.34707">
        <ele>459</ele>
        <time>2019-02-24T10:46:37Z</time>
      </trkpt>
      <trkpt lat="43.2209" lon="6.34697">
        <ele>459</ele>
        <time>2019-02-24T10:46:45Z</time>
      </trkpt>
      <trkpt lat="43.22086" lon="6.34687">
        <ele>458</ele>
        <time>2019-02-24T10:46:54Z</time>
      </trkpt>
      <trkpt lat="43.22081" lon="6.34678">
        <ele>458</ele>
        <time>2019-02-24T10:47:02Z</time>
      </trkpt>
      <trkpt lat="43.22075" lon="6.3467">
        <ele>458</ele>
        <time>2019-02-24T10:47:09Z</time>
      </trkpt>
      <trkpt lat="43.22069" lon="6.34664">
        <ele>456</ele>
        <time>2019-02-24T10:47:18Z</time>
      </trkpt>
      <trkpt lat="43.22069" lon="6.34654">
        <ele>455</ele>
        <time>2019-02-24T10:47:32Z</time>
      </trkpt>
      <trkpt lat="43.22063" lon="6.34645">
        <ele>459</ele>
        <time>2019-02-24T10:48:15Z</time>
      </trkpt>
      <trkpt lat="43.22055" lon="6.34643">
        <ele>467</ele>
        <time>2019-02-24T10:48:48Z</time>
      </trkpt>
      <trkpt lat="43.22047" lon="6.34643">
        <ele>461</ele>
        <time>2019-02-24T10:48:59Z</time>
      </trkpt>
      <trkpt lat="43.22032" lon="6.34638">
        <ele>458</ele>
        <time>2019-02-24T10:49:13Z</time>
      </trkpt>
      <trkpt lat="43.22026" lon="6.34631">
        <ele>458</ele>
        <time>2019-02-24T10:49:23Z</time>
      </trkpt>
      <trkpt lat="43.2202" lon="6.34625">
        <ele>457</ele>
        <time>2019-02-24T10:49:31Z</time>
      </trkpt>
      <trkpt lat="43.22011" lon="6.34621">
        <ele>458</ele>
        <time>2019-02-24T10:49:42Z</time>
      </trkpt>
      <trkpt lat="43.22002" lon="6.34622">
        <ele>461</ele>
        <time>2019-02-24T10:49:50Z</time>
      </trkpt>
      <trkpt lat="43.21994" lon="6.3462">
        <ele>461</ele>
        <time>2019-02-24T10:49:59Z</time>
      </trkpt>
      <trkpt lat="43.21986" lon="6.34616">
        <ele>462</ele>
        <time>2019-02-24T10:50:09Z</time>
      </trkpt>
      <trkpt lat="43.2197" lon="6.34617">
        <ele>462</ele>
        <time>2019-02-24T10:50:23Z</time>
      </trkpt>
      <trkpt lat="43.21961" lon="6.34618">
        <ele>462</ele>
        <time>2019-02-24T10:50:33Z</time>
      </trkpt>
      <trkpt lat="43.21935" lon="6.34607">
        <ele>464</ele>
        <time>2019-02-24T10:50:59Z</time>
      </trkpt>
      <trkpt lat="43.21927" lon="6.34601">
        <ele>465</ele>
        <time>2019-02-24T10:51:08Z</time>
      </trkpt>
      <trkpt lat="43.21918" lon="6.34595">
        <ele>464</ele>
        <time>2019-02-24T10:51:17Z</time>
      </trkpt>
      <trkpt lat="43.21913" lon="6.34587">
        <ele>463</ele>
        <time>2019-02-24T10:51:24Z</time>
      </trkpt>
      <trkpt lat="43.21907" lon="6.34582">
        <ele>463</ele>
        <time>2019-02-24T10:51:31Z</time>
      </trkpt>
      <trkpt lat="43.21901" lon="6.34573">
        <ele>464</ele>
        <time>2019-02-24T10:51:42Z</time>
      </trkpt>
      <trkpt lat="43.21897" lon="6.34563">
        <ele>465</ele>
        <time>2019-02-24T10:51:52Z</time>
      </trkpt>
      <trkpt lat="43.21891" lon="6.34555">
        <ele>468</ele>
        <time>2019-02-24T10:52:01Z</time>
      </trkpt>
      <trkpt lat="43.21887" lon="6.34536">
        <ele>468</ele>
        <time>2019-02-24T10:52:14Z</time>
      </trkpt>
      <trkpt lat="43.21882" lon="6.34528">
        <ele>467</ele>
        <time>2019-02-24T10:52:19Z</time>
      </trkpt>
      <trkpt lat="43.21877" lon="6.34517">
        <ele>467</ele>
        <time>2019-02-24T10:52:30Z</time>
      </trkpt>
      <trkpt lat="43.21875" lon="6.34506">
        <ele>467</ele>
        <time>2019-02-24T10:52:41Z</time>
      </trkpt>
      <trkpt lat="43.2187" lon="6.34497">
        <ele>465</ele>
        <time>2019-02-24T10:52:51Z</time>
      </trkpt>
      <trkpt lat="43.21875" lon="6.34492">
        <ele>468</ele>
        <time>2019-02-24T10:53:33Z</time>
      </trkpt>
      <trkpt lat="43.2187" lon="6.34483">
        <ele>466</ele>
        <time>2019-02-24T10:53:48Z</time>
      </trkpt>
      <trkpt lat="43.21864" lon="6.34477">
        <ele>466</ele>
        <time>2019-02-24T10:54:00Z</time>
      </trkpt>
      <trkpt lat="43.21859" lon="6.34468">
        <ele>466</ele>
        <time>2019-02-24T10:54:09Z</time>
      </trkpt>
      <trkpt lat="43.21854" lon="6.34458">
        <ele>466</ele>
        <time>2019-02-24T10:54:15Z</time>
      </trkpt>
      <trkpt lat="43.21848" lon="6.3445">
        <ele>466</ele>
        <time>2019-02-24T10:54:23Z</time>
      </trkpt>
      <trkpt lat="43.21843" lon="6.34445">
        <ele>466</ele>
        <time>2019-02-24T10:54:30Z</time>
      </trkpt>
      <trkpt lat="43.21838" lon="6.34437">
        <ele>468</ele>
        <time>2019-02-24T10:54:36Z</time>
      </trkpt>
      <trkpt lat="43.21808" lon="6.34397">
        <ele>464</ele>
        <time>2019-02-24T10:55:10Z</time>
      </trkpt>
      <trkpt lat="43.21798" lon="6.34386">
        <ele>464</ele>
        <time>2019-02-24T10:55:22Z</time>
      </trkpt>
      <trkpt lat="43.21793" lon="6.34384">
        <ele>465</ele>
        <time>2019-02-24T10:55:36Z</time>
      </trkpt>
      <trkpt lat="43.21789" lon="6.34378">
        <ele>465</ele>
        <time>2019-02-24T10:55:44Z</time>
      </trkpt>
      <trkpt lat="43.21786" lon="6.34372">
        <ele>464</ele>
        <time>2019-02-24T10:55:49Z</time>
      </trkpt>
      <trkpt lat="43.21783" lon="6.34366">
        <ele>463</ele>
        <time>2019-02-24T10:55:55Z</time>
      </trkpt>
      <trkpt lat="43.21782" lon="6.3436">
        <ele>463</ele>
        <time>2019-02-24T10:56:25Z</time>
      </trkpt>
      <trkpt lat="43.21778" lon="6.34355">
        <ele>463</ele>
        <time>2019-02-24T10:56:31Z</time>
      </trkpt>
      <trkpt lat="43.21775" lon="6.34349">
        <ele>466</ele>
        <time>2019-02-24T10:57:19Z</time>
      </trkpt>
      <trkpt lat="43.2177" lon="6.34355">
        <ele>466</ele>
        <time>2019-02-24T10:57:28Z</time>
      </trkpt>
      <trkpt lat="43.21764" lon="6.34357">
        <ele>466</ele>
        <time>2019-02-24T10:57:36Z</time>
      </trkpt>
      <trkpt lat="43.21757" lon="6.34355">
        <ele>466</ele>
        <time>2019-02-24T10:57:45Z</time>
      </trkpt>
      <trkpt lat="43.21749" lon="6.34353">
        <ele>467</ele>
        <time>2019-02-24T10:57:51Z</time>
      </trkpt>
      <trkpt lat="43.21745" lon="6.34346">
        <ele>468</ele>
        <time>2019-02-24T10:57:57Z</time>
      </trkpt>
      <trkpt lat="43.2174" lon="6.34328">
        <ele>468</ele>
        <time>2019-02-24T10:58:10Z</time>
      </trkpt>
      <trkpt lat="43.21736" lon="6.34324">
        <ele>469</ele>
        <time>2019-02-24T10:58:15Z</time>
      </trkpt>
      <trkpt lat="43.21733" lon="6.34317">
        <ele>469</ele>
        <time>2019-02-24T10:58:22Z</time>
      </trkpt>
      <trkpt lat="43.21728" lon="6.34312">
        <ele>470</ele>
        <time>2019-02-24T10:58:30Z</time>
      </trkpt>
      <trkpt lat="43.21722" lon="6.34305">
        <ele>470</ele>
        <time>2019-02-24T10:58:37Z</time>
      </trkpt>
      <trkpt lat="43.21716" lon="6.34301">
        <ele>471</ele>
        <time>2019-02-24T10:58:43Z</time>
      </trkpt>
      <trkpt lat="43.2171" lon="6.34294">
        <ele>471</ele>
        <time>2019-02-24T10:58:50Z</time>
      </trkpt>
      <trkpt lat="43.21706" lon="6.34287">
        <ele>473</ele>
        <time>2019-02-24T10:58:56Z</time>
      </trkpt>
      <trkpt lat="43.217" lon="6.3428">
        <ele>473</ele>
        <time>2019-02-24T10:59:04Z</time>
      </trkpt>
      <trkpt lat="43.21698" lon="6.34261">
        <ele>472</ele>
        <time>2019-02-24T10:59:16Z</time>
      </trkpt>
      <trkpt lat="43.21696" lon="6.3425">
        <ele>472</ele>
        <time>2019-02-24T10:59:23Z</time>
      </trkpt>
      <trkpt lat="43.2169" lon="6.34231">
        <ele>472</ele>
        <time>2019-02-24T10:59:38Z</time>
      </trkpt>
      <trkpt lat="43.21686" lon="6.34221">
        <ele>472</ele>
        <time>2019-02-24T10:59:45Z</time>
      </trkpt>
      <trkpt lat="43.21682" lon="6.34213">
        <ele>473</ele>
        <time>2019-02-24T10:59:51Z</time>
      </trkpt>
      <trkpt lat="43.21675" lon="6.34206">
        <ele>473</ele>
        <time>2019-02-24T10:59:57Z</time>
      </trkpt>
      <trkpt lat="43.21653" lon="6.34183">
        <ele>476</ele>
        <time>2019-02-24T11:00:19Z</time>
      </trkpt>
      <trkpt lat="43.21646" lon="6.34179">
        <ele>477</ele>
        <time>2019-02-24T11:00:26Z</time>
      </trkpt>
      <trkpt lat="43.21639" lon="6.34174">
        <ele>477</ele>
        <time>2019-02-24T11:00:33Z</time>
      </trkpt>
      <trkpt lat="43.21628" lon="6.34161">
        <ele>476</ele>
        <time>2019-02-24T11:00:46Z</time>
      </trkpt>
      <trkpt lat="43.21628" lon="6.34153">
        <ele>475</ele>
        <time>2019-02-24T11:00:52Z</time>
      </trkpt>
      <trkpt lat="43.21626" lon="6.34141">
        <ele>474</ele>
        <time>2019-02-24T11:00:58Z</time>
      </trkpt>
      <trkpt lat="43.21626" lon="6.34131">
        <ele>474</ele>
        <time>2019-02-24T11:01:04Z</time>
      </trkpt>
      <trkpt lat="43.21623" lon="6.34121">
        <ele>475</ele>
        <time>2019-02-24T11:01:13Z</time>
      </trkpt>
      <trkpt lat="43.21615" lon="6.34105">
        <ele>477</ele>
        <time>2019-02-24T11:01:26Z</time>
      </trkpt>
      <trkpt lat="43.21609" lon="6.34098">
        <ele>477</ele>
        <time>2019-02-24T11:01:33Z</time>
      </trkpt>
      <trkpt lat="43.21598" lon="6.34085">
        <ele>477</ele>
        <time>2019-02-24T11:01:46Z</time>
      </trkpt>
      <trkpt lat="43.21593" lon="6.34079">
        <ele>477</ele>
        <time>2019-02-24T11:01:52Z</time>
      </trkpt>
      <trkpt lat="43.21588" lon="6.34073">
        <ele>479</ele>
        <time>2019-02-24T11:01:59Z</time>
      </trkpt>
      <trkpt lat="43.21586" lon="6.34065">
        <ele>478</ele>
        <time>2019-02-24T11:02:03Z</time>
      </trkpt>
      <trkpt lat="43.21585" lon="6.34054">
        <ele>475</ele>
        <time>2019-02-24T11:02:09Z</time>
      </trkpt>
      <trkpt lat="43.21586" lon="6.34045">
        <ele>476</ele>
        <time>2019-02-24T11:02:16Z</time>
      </trkpt>
      <trkpt lat="43.2159" lon="6.34033">
        <ele>478</ele>
        <time>2019-02-24T11:02:25Z</time>
      </trkpt>
      <trkpt lat="43.21594" lon="6.34023">
        <ele>479</ele>
        <time>2019-02-24T11:02:34Z</time>
      </trkpt>
      <trkpt lat="43.21584" lon="6.33979">
        <ele>481</ele>
        <time>2019-02-24T11:03:06Z</time>
      </trkpt>
      <trkpt lat="43.21579" lon="6.33971">
        <ele>482</ele>
        <time>2019-02-24T11:03:14Z</time>
      </trkpt>
      <trkpt lat="43.21569" lon="6.3395">
        <ele>482</ele>
        <time>2019-02-24T11:03:39Z</time>
      </trkpt>
      <trkpt lat="43.21571" lon="6.33945">
        <ele>482</ele>
        <time>2019-02-24T11:06:30Z</time>
      </trkpt>
      <trkpt lat="43.21568" lon="6.33929">
        <ele>480</ele>
        <time>2019-02-24T11:06:51Z</time>
      </trkpt>
      <trkpt lat="43.21566" lon="6.33898">
        <ele>482</ele>
        <time>2019-02-24T11:07:12Z</time>
      </trkpt>
      <trkpt lat="43.2157" lon="6.33892">
        <ele>481</ele>
        <time>2019-02-24T11:07:20Z</time>
      </trkpt>
      <trkpt lat="43.21566" lon="6.33882">
        <ele>482</ele>
        <time>2019-02-24T11:08:11Z</time>
      </trkpt>
      <trkpt lat="43.21567" lon="6.33873">
        <ele>482</ele>
        <time>2019-02-24T11:08:22Z</time>
      </trkpt>
      <trkpt lat="43.21577" lon="6.33861">
        <ele>484</ele>
        <time>2019-02-24T11:08:40Z</time>
      </trkpt>
      <trkpt lat="43.21586" lon="6.3386">
        <ele>483</ele>
        <time>2019-02-24T11:08:55Z</time>
      </trkpt>
      <trkpt lat="43.21599" lon="6.33851">
        <ele>480</ele>
        <time>2019-02-24T11:09:11Z</time>
      </trkpt>
      <trkpt lat="43.216" lon="6.3384">
        <ele>477</ele>
        <time>2019-02-24T11:09:19Z</time>
      </trkpt>
      <trkpt lat="43.21599" lon="6.33832">
        <ele>476</ele>
        <time>2019-02-24T11:09:25Z</time>
      </trkpt>
      <trkpt lat="43.21598" lon="6.33823">
        <ele>476</ele>
        <time>2019-02-24T11:09:31Z</time>
      </trkpt>
      <trkpt lat="43.21602" lon="6.33814">
        <ele>476</ele>
        <time>2019-02-24T11:09:37Z</time>
      </trkpt>
      <trkpt lat="43.21604" lon="6.33806">
        <ele>477</ele>
        <time>2019-02-24T11:09:43Z</time>
      </trkpt>
      <trkpt lat="43.21608" lon="6.33797">
        <ele>478</ele>
        <time>2019-02-24T11:09:50Z</time>
      </trkpt>
      <trkpt lat="43.2162" lon="6.33771">
        <ele>477</ele>
        <time>2019-02-24T11:10:16Z</time>
      </trkpt>
      <trkpt lat="43.21628" lon="6.33766">
        <ele>477</ele>
        <time>2019-02-24T11:10:40Z</time>
      </trkpt>
      <trkpt lat="43.21632" lon="6.3376">
        <ele>474</ele>
        <time>2019-02-24T11:12:31Z</time>
      </trkpt>
      <trkpt lat="43.21626" lon="6.33757">
        <ele>475</ele>
        <time>2019-02-24T11:13:41Z</time>
      </trkpt>
      <trkpt lat="43.21621" lon="6.33752">
        <ele>475</ele>
        <time>2019-02-24T11:13:47Z</time>
      </trkpt>
      <trkpt lat="43.21616" lon="6.33747">
        <ele>475</ele>
        <time>2019-02-24T11:13:53Z</time>
      </trkpt>
      <trkpt lat="43.21587" lon="6.33735">
        <ele>477</ele>
        <time>2019-02-24T11:14:24Z</time>
      </trkpt>
      <trkpt lat="43.21575" lon="6.3373">
        <ele>477</ele>
        <time>2019-02-24T11:14:37Z</time>
      </trkpt>
      <trkpt lat="43.21571" lon="6.33724">
        <ele>476</ele>
        <time>2019-02-24T11:14:43Z</time>
      </trkpt>
      <trkpt lat="43.21565" lon="6.3372">
        <ele>477</ele>
        <time>2019-02-24T11:14:48Z</time>
      </trkpt>
      <trkpt lat="43.21559" lon="6.33718">
        <ele>477</ele>
        <time>2019-02-24T11:14:54Z</time>
      </trkpt>
      <trkpt lat="43.21543" lon="6.33712">
        <ele>480</ele>
        <time>2019-02-24T11:15:12Z</time>
      </trkpt>
      <trkpt lat="43.21537" lon="6.33709">
        <ele>480</ele>
        <time>2019-02-24T11:15:19Z</time>
      </trkpt>
      <trkpt lat="43.21529" lon="6.33692">
        <ele>479</ele>
        <time>2019-02-24T11:17:07Z</time>
      </trkpt>
      <trkpt lat="43.21529" lon="6.33679">
        <ele>480</ele>
        <time>2019-02-24T11:17:16Z</time>
      </trkpt>
      <trkpt lat="43.21522" lon="6.33681">
        <ele>480</ele>
        <time>2019-02-24T11:17:25Z</time>
      </trkpt>
      <trkpt lat="43.21516" lon="6.33685">
        <ele>485</ele>
        <time>2019-02-24T11:18:59Z</time>
      </trkpt>
      <trkpt lat="43.21521" lon="6.337">
        <ele>487</ele>
        <time>2019-02-24T11:19:23Z</time>
      </trkpt>
      <trkpt lat="43.21516" lon="6.33714">
        <ele>485</ele>
        <time>2019-02-24T11:19:32Z</time>
      </trkpt>
      <trkpt lat="43.21507" lon="6.3372">
        <ele>483</ele>
        <time>2019-02-24T11:19:40Z</time>
      </trkpt>
      <trkpt lat="43.21493" lon="6.33719">
        <ele>478</ele>
        <time>2019-02-24T11:19:41Z</time>
      </trkpt>
      <trkpt lat="43.21492" lon="6.33749">
        <ele>479.8</ele>
        <time>2019-02-24T11:19:44Z</time>
      </trkpt>
      <trkpt lat="43.21493" lon="6.33719">
        <ele>477.9</ele>
        <time>2019-02-24T11:19:47Z</time>
      </trkpt>
      <trkpt lat="43.21515" lon="6.3372">
        <ele>478.5</ele>
        <time>2019-02-24T11:19:50Z</time>
      </trkpt>
      <trkpt lat="43.21514" lon="6.33752">
        <ele>479.9</ele>
        <time>2019-02-24T11:19:53Z</time>
      </trkpt>
      <trkpt lat="43.21493" lon="6.3375">
        <ele>479.9</ele>
        <time>2019-02-24T11:19:56Z</time>
      </trkpt>
      <trkpt lat="43.21479" lon="6.33767">
        <ele>478</ele>
        <time>2019-02-24T11:20:24Z</time>
      </trkpt>
      <trkpt lat="43.2146" lon="6.33789">
        <ele>476</ele>
        <time>2019-02-24T11:20:51Z</time>
      </trkpt>
      <trkpt lat="43.21456" lon="6.33796">
        <ele>478</ele>
        <time>2019-02-24T11:20:57Z</time>
      </trkpt>
      <trkpt lat="43.21451" lon="6.33799">
        <ele>478</ele>
        <time>2019-02-24T11:21:03Z</time>
      </trkpt>
      <trkpt lat="43.21444" lon="6.33799">
        <ele>478</ele>
        <time>2019-02-24T11:21:10Z</time>
      </trkpt>
      <trkpt lat="43.21437" lon="6.33798">
        <ele>477</ele>
        <time>2019-02-24T11:21:19Z</time>
      </trkpt>
      <trkpt lat="43.21432" lon="6.33799">
        <ele>477</ele>
        <time>2019-02-24T11:21:25Z</time>
      </trkpt>
      <trkpt lat="43.21425" lon="6.33804">
        <ele>476</ele>
        <time>2019-02-24T11:21:39Z</time>
      </trkpt>
      <trkpt lat="43.21419" lon="6.33809">
        <ele>474</ele>
        <time>2019-02-24T11:21:48Z</time>
      </trkpt>
      <trkpt lat="43.21413" lon="6.33806">
        <ele>473</ele>
        <time>2019-02-24T11:21:58Z</time>
      </trkpt>
      <trkpt lat="43.21406" lon="6.33806">
        <ele>472</ele>
        <time>2019-02-24T11:22:05Z</time>
      </trkpt>
      <trkpt lat="43.21402" lon="6.3381">
        <ele>471</ele>
        <time>2019-02-24T11:22:15Z</time>
      </trkpt>
      <trkpt lat="43.21397" lon="6.33812">
        <ele>470</ele>
        <time>2019-02-24T11:22:36Z</time>
      </trkpt>
      <trkpt lat="43.21391" lon="6.33811">
        <ele>472</ele>
        <time>2019-02-24T11:23:41Z</time>
      </trkpt>
      <trkpt lat="43.21388" lon="6.33818">
        <ele>473</ele>
        <time>2019-02-24T11:25:37Z</time>
      </trkpt>
      <trkpt lat="43.21387" lon="6.33821">
        <ele>474</ele>
        <time>2019-02-24T11:27:18Z</time>
      </trkpt>
      <trkpt lat="43.21388" lon="6.33828">
        <ele>474</ele>
        <time>2019-02-24T11:27:24Z</time>
      </trkpt>
      <trkpt lat="43.2139" lon="6.33829">
        <ele>476</ele>
        <time>2019-02-24T11:28:00Z</time>
      </trkpt>
      <trkpt lat="43.21395" lon="6.33826">
        <ele>476</ele>
        <time>2019-02-24T11:28:05Z</time>
      </trkpt>
      <trkpt lat="43.21392" lon="6.3382">
        <ele>476</ele>
        <time>2019-02-24T11:28:18Z</time>
      </trkpt>
      <trkpt lat="43.2139" lon="6.33811">
        <ele>475</ele>
        <time>2019-02-24T11:28:27Z</time>
      </trkpt>
      <trkpt lat="43.2139" lon="6.33805">
        <ele>477</ele>
        <time>2019-02-24T11:43:25Z</time>
      </trkpt>
      <trkpt lat="43.2139" lon="6.33817">
        <ele>477</ele>
        <time>2019-02-24T12:02:47Z</time>
      </trkpt>
      <trkpt lat="43.21391" lon="6.33822">
        <ele>476</ele>
        <time>2019-02-24T12:03:08Z</time>
      </trkpt>
      <trkpt lat="43.21391" lon="6.33828">
        <ele>476</ele>
        <time>2019-02-24T12:03:14Z</time>
      </trkpt>
      <trkpt lat="43.21398" lon="6.33841">
        <ele>476</ele>
        <time>2019-02-24T12:03:29Z</time>
      </trkpt>
      <trkpt lat="43.214" lon="6.33847">
        <ele>475</ele>
        <time>2019-02-24T12:03:36Z</time>
      </trkpt>
      <trkpt lat="43.21399" lon="6.33854">
        <ele>476</ele>
        <time>2019-02-24T12:03:40Z</time>
      </trkpt>
      <trkpt lat="43.21394" lon="6.33863">
        <ele>477</ele>
        <time>2019-02-24T12:03:46Z</time>
      </trkpt>
      <trkpt lat="43.2139" lon="6.33883">
        <ele>479</ele>
        <time>2019-02-24T12:03:59Z</time>
      </trkpt>
      <trkpt lat="43.21386" lon="6.33893">
        <ele>480</ele>
        <time>2019-02-24T12:04:08Z</time>
      </trkpt>
      <trkpt lat="43.2138" lon="6.33886">
        <ele>482</ele>
        <time>2019-02-24T12:05:00Z</time>
      </trkpt>
      <trkpt lat="43.21384" lon="6.33884">
        <ele>481</ele>
        <time>2019-02-24T12:05:15Z</time>
      </trkpt>
      <trkpt lat="43.21388" lon="6.33883">
        <ele>480</ele>
        <time>2019-02-24T12:05:20Z</time>
      </trkpt>
      <trkpt lat="43.21389" lon="6.33877">
        <ele>476</ele>
        <time>2019-02-24T12:05:30Z</time>
      </trkpt>
      <trkpt lat="43.2139" lon="6.3387">
        <ele>476</ele>
        <time>2019-02-24T12:05:35Z</time>
      </trkpt>
      <trkpt lat="43.21395" lon="6.33852">
        <ele>477</ele>
        <time>2019-02-24T12:05:49Z</time>
      </trkpt>
      <trkpt lat="43.21395" lon="6.33847">
        <ele>477</ele>
        <time>2019-02-24T12:05:52Z</time>
      </trkpt>
      <trkpt lat="43.21396" lon="6.33842">
        <ele>477</ele>
        <time>2019-02-24T12:05:56Z</time>
      </trkpt>
      <trkpt lat="43.21395" lon="6.33837">
        <ele>478</ele>
        <time>2019-02-24T12:06:03Z</time>
      </trkpt>
      <trkpt lat="43.21396" lon="6.33832">
        <ele>479</ele>
        <time>2019-02-24T12:06:12Z</time>
      </trkpt>
      <trkpt lat="43.21394" lon="6.33827">
        <ele>479</ele>
        <time>2019-02-24T12:06:20Z</time>
      </trkpt>
      <trkpt lat="43.21392" lon="6.33823">
        <ele>480</ele>
        <time>2019-02-24T12:06:27Z</time>
      </trkpt>
      <trkpt lat="43.21389" lon="6.33824">
        <ele>479</ele>
        <time>2019-02-24T12:06:33Z</time>
      </trkpt>
      <trkpt lat="43.21385" lon="6.33821">
        <ele>475</ele>
        <time>2019-02-24T12:08:39Z</time>
      </trkpt>
      <trkpt lat="43.21385" lon="6.33816">
        <ele>475</ele>
        <time>2019-02-24T12:12:19Z</time>
      </trkpt>
      <trkpt lat="43.2139" lon="6.33815">
        <ele>474</ele>
        <time>2019-02-24T12:18:06Z</time>
      </trkpt>
      <trkpt lat="43.21392" lon="6.33813">
        <ele>473</ele>
        <time>2019-02-24T12:21:42Z</time>
      </trkpt>
      <trkpt lat="43.2139" lon="6.33812">
        <ele>472</ele>
        <time>2019-02-24T12:23:38Z</time>
      </trkpt>
      <trkpt lat="43.21387" lon="6.3381">
        <ele>470</ele>
        <time>2019-02-24T12:25:44Z</time>
      </trkpt>
      <trkpt lat="43.21383" lon="6.33808">
        <ele>469</ele>
        <time>2019-02-24T12:26:05Z</time>
      </trkpt>
      <trkpt lat="43.21379" lon="6.33802">
        <ele>470</ele>
        <time>2019-02-24T12:26:23Z</time>
      </trkpt>
      <trkpt lat="43.21376" lon="6.33794">
        <ele>471</ele>
        <time>2019-02-24T12:27:22Z</time>
      </trkpt>
      <trkpt lat="43.21371" lon="6.33788">
        <ele>473</ele>
        <time>2019-02-24T12:28:05Z</time>
      </trkpt>
      <trkpt lat="43.21366" lon="6.33785">
        <ele>473</ele>
        <time>2019-02-24T12:28:11Z</time>
      </trkpt>
      <trkpt lat="43.2136" lon="6.3378">
        <ele>472</ele>
        <time>2019-02-24T12:28:20Z</time>
      </trkpt>
      <trkpt lat="43.21357" lon="6.33771">
        <ele>471</ele>
        <time>2019-02-24T12:28:58Z</time>
      </trkpt>
      <trkpt lat="43.21353" lon="6.3376">
        <ele>472</ele>
        <time>2019-02-24T12:29:12Z</time>
      </trkpt>
      <trkpt lat="43.21352" lon="6.33749">
        <ele>473</ele>
        <time>2019-02-24T12:29:21Z</time>
      </trkpt>
      <trkpt lat="43.21349" lon="6.33739">
        <ele>473</ele>
        <time>2019-02-24T12:29:39Z</time>
      </trkpt>
      <trkpt lat="43.21345" lon="6.33728">
        <ele>474</ele>
        <time>2019-02-24T12:29:50Z</time>
      </trkpt>
      <trkpt lat="43.21342" lon="6.33718">
        <ele>474</ele>
        <time>2019-02-24T12:29:56Z</time>
      </trkpt>
      <trkpt lat="43.21338" lon="6.33708">
        <ele>473</ele>
        <time>2019-02-24T12:30:03Z</time>
      </trkpt>
      <trkpt lat="43.21335" lon="6.33699">
        <ele>474</ele>
        <time>2019-02-24T12:30:12Z</time>
      </trkpt>
      <trkpt lat="43.21335" lon="6.33689">
        <ele>473</ele>
        <time>2019-02-24T12:30:19Z</time>
      </trkpt>
      <trkpt lat="43.21339" lon="6.33683">
        <ele>474</ele>
        <time>2019-02-24T12:30:29Z</time>
      </trkpt>
      <trkpt lat="43.21338" lon="6.33679">
        <ele>474</ele>
        <time>2019-02-24T12:31:16Z</time>
      </trkpt>
      <trkpt lat="43.21333" lon="6.33684">
        <ele>474</ele>
        <time>2019-02-24T12:31:26Z</time>
      </trkpt>
      <trkpt lat="43.21327" lon="6.33668">
        <ele>474</ele>
        <time>2019-02-24T12:31:45Z</time>
      </trkpt>
      <trkpt lat="43.21325" lon="6.3366">
        <ele>474</ele>
        <time>2019-02-24T12:32:07Z</time>
      </trkpt>
      <trkpt lat="43.21324" lon="6.33654">
        <ele>475</ele>
        <time>2019-02-24T12:32:13Z</time>
      </trkpt>
      <trkpt lat="43.2132" lon="6.33648">
        <ele>476</ele>
        <time>2019-02-24T12:32:22Z</time>
      </trkpt>
      <trkpt lat="43.21316" lon="6.33641">
        <ele>477</ele>
        <time>2019-02-24T12:32:33Z</time>
      </trkpt>
      <trkpt lat="43.21311" lon="6.33633">
        <ele>478</ele>
        <time>2019-02-24T12:32:44Z</time>
      </trkpt>
      <trkpt lat="43.21303" lon="6.33617">
        <ele>481</ele>
        <time>2019-02-24T12:33:05Z</time>
      </trkpt>
      <trkpt lat="43.21304" lon="6.33609">
        <ele>482</ele>
        <time>2019-02-24T12:33:11Z</time>
      </trkpt>
      <trkpt lat="43.21305" lon="6.33591">
        <ele>483</ele>
        <time>2019-02-24T12:33:28Z</time>
      </trkpt>
      <trkpt lat="43.21306" lon="6.33584">
        <ele>483</ele>
        <time>2019-02-24T12:33:37Z</time>
      </trkpt>
      <trkpt lat="43.21307" lon="6.33576">
        <ele>482</ele>
        <time>2019-02-24T12:33:45Z</time>
      </trkpt>
      <trkpt lat="43.21305" lon="6.33571">
        <ele>481</ele>
        <time>2019-02-24T12:33:56Z</time>
      </trkpt>
      <trkpt lat="43.21307" lon="6.33565">
        <ele>481</ele>
        <time>2019-02-24T12:34:03Z</time>
      </trkpt>
      <trkpt lat="43.21307" lon="6.33558">
        <ele>480</ele>
        <time>2019-02-24T12:34:11Z</time>
      </trkpt>
      <trkpt lat="43.21306" lon="6.33564">
        <ele>477</ele>
        <time>2019-02-24T12:42:39Z</time>
      </trkpt>
      <trkpt lat="43.21306" lon="6.33571">
        <ele>478</ele>
        <time>2019-02-24T12:42:49Z</time>
      </trkpt>
      <trkpt lat="43.21306" lon="6.33578">
        <ele>479</ele>
        <time>2019-02-24T12:42:57Z</time>
      </trkpt>
      <trkpt lat="43.21305" lon="6.33586">
        <ele>481</ele>
        <time>2019-02-24T12:43:07Z</time>
      </trkpt>
      <trkpt lat="43.21302" lon="6.336">
        <ele>482</ele>
        <time>2019-02-24T12:43:20Z</time>
      </trkpt>
      <trkpt lat="43.21303" lon="6.33606">
        <ele>482</ele>
        <time>2019-02-24T12:43:28Z</time>
      </trkpt>
      <trkpt lat="43.21302" lon="6.33613">
        <ele>482</ele>
        <time>2019-02-24T12:43:34Z</time>
      </trkpt>
      <trkpt lat="43.21297" lon="6.33613">
        <ele>483</ele>
        <time>2019-02-24T12:43:55Z</time>
      </trkpt>
      <trkpt lat="43.21292" lon="6.33608">
        <ele>484</ele>
        <time>2019-02-24T12:44:03Z</time>
      </trkpt>
      <trkpt lat="43.21272" lon="6.33589">
        <ele>490</ele>
        <time>2019-02-24T12:44:35Z</time>
      </trkpt>
      <trkpt lat="43.21268" lon="6.33584">
        <ele>490</ele>
        <time>2019-02-24T12:44:40Z</time>
      </trkpt>
      <trkpt lat="43.21265" lon="6.33579">
        <ele>491</ele>
        <time>2019-02-24T12:44:47Z</time>
      </trkpt>
      <trkpt lat="43.21262" lon="6.33573">
        <ele>491</ele>
        <time>2019-02-24T12:44:53Z</time>
      </trkpt>
      <trkpt lat="43.2126" lon="6.33563">
        <ele>491</ele>
        <time>2019-02-24T12:45:04Z</time>
      </trkpt>
      <trkpt lat="43.21254" lon="6.33558">
        <ele>493</ele>
        <time>2019-02-24T12:45:14Z</time>
      </trkpt>
      <trkpt lat="43.21249" lon="6.33551">
        <ele>493</ele>
        <time>2019-02-24T12:45:23Z</time>
      </trkpt>
      <trkpt lat="43.21242" lon="6.33546">
        <ele>494</ele>
        <time>2019-02-24T12:45:31Z</time>
      </trkpt>
      <trkpt lat="43.21237" lon="6.3354">
        <ele>494</ele>
        <time>2019-02-24T12:45:41Z</time>
      </trkpt>
      <trkpt lat="43.21226" lon="6.3353">
        <ele>496</ele>
        <time>2019-02-24T12:46:03Z</time>
      </trkpt>
      <trkpt lat="43.21214" lon="6.3352">
        <ele>498</ele>
        <time>2019-02-24T12:46:25Z</time>
      </trkpt>
      <trkpt lat="43.21207" lon="6.33517">
        <ele>499</ele>
        <time>2019-02-24T12:46:38Z</time>
      </trkpt>
      <trkpt lat="43.21201" lon="6.3351">
        <ele>500</ele>
        <time>2019-02-24T12:46:51Z</time>
      </trkpt>
      <trkpt lat="43.21194" lon="6.33509">
        <ele>502</ele>
        <time>2019-02-24T12:47:04Z</time>
      </trkpt>
      <trkpt lat="43.21188" lon="6.33509">
        <ele>503</ele>
        <time>2019-02-24T12:47:13Z</time>
      </trkpt>
      <trkpt lat="43.21183" lon="6.3351">
        <ele>506</ele>
        <time>2019-02-24T12:47:22Z</time>
      </trkpt>
      <trkpt lat="43.21179" lon="6.33511">
        <ele>506</ele>
        <time>2019-02-24T12:47:29Z</time>
      </trkpt>
      <trkpt lat="43.21174" lon="6.33515">
        <ele>507</ele>
        <time>2019-02-24T12:47:37Z</time>
      </trkpt>
      <trkpt lat="43.21169" lon="6.33516">
        <ele>507</ele>
        <time>2019-02-24T12:47:45Z</time>
      </trkpt>
      <trkpt lat="43.21164" lon="6.33516">
        <ele>510</ele>
        <time>2019-02-24T12:47:55Z</time>
      </trkpt>
      <trkpt lat="43.2116" lon="6.33512">
        <ele>511</ele>
        <time>2019-02-24T12:48:02Z</time>
      </trkpt>
      <trkpt lat="43.21155" lon="6.33509">
        <ele>513</ele>
        <time>2019-02-24T12:48:08Z</time>
      </trkpt>
      <trkpt lat="43.2115" lon="6.33507">
        <ele>513</ele>
        <time>2019-02-24T12:48:14Z</time>
      </trkpt>
      <trkpt lat="43.21147" lon="6.33499">
        <ele>515</ele>
        <time>2019-02-24T12:48:22Z</time>
      </trkpt>
      <trkpt lat="43.21146" lon="6.33492">
        <ele>515</ele>
        <time>2019-02-24T12:48:28Z</time>
      </trkpt>
      <trkpt lat="43.21147" lon="6.33485">
        <ele>514</ele>
        <time>2019-02-24T12:48:33Z</time>
      </trkpt>
      <trkpt lat="43.21144" lon="6.33464">
        <ele>516</ele>
        <time>2019-02-24T12:48:52Z</time>
      </trkpt>
      <trkpt lat="43.21144" lon="6.33451">
        <ele>515</ele>
        <time>2019-02-24T12:49:01Z</time>
      </trkpt>
      <trkpt lat="43.21142" lon="6.33432">
        <ele>515</ele>
        <time>2019-02-24T12:49:16Z</time>
      </trkpt>
      <trkpt lat="43.21141" lon="6.33424">
        <ele>516</ele>
        <time>2019-02-24T12:49:22Z</time>
      </trkpt>
      <trkpt lat="43.21137" lon="6.33401">
        <ele>517</ele>
        <time>2019-02-24T12:49:39Z</time>
      </trkpt>
      <trkpt lat="43.21134" lon="6.33393">
        <ele>517</ele>
        <time>2019-02-24T12:49:46Z</time>
      </trkpt>
      <trkpt lat="43.21131" lon="6.33389">
        <ele>516</ele>
        <time>2019-02-24T12:50:02Z</time>
      </trkpt>
      <trkpt lat="43.2113" lon="6.33383">
        <ele>516</ele>
        <time>2019-02-24T12:51:30Z</time>
      </trkpt>
      <trkpt lat="43.21125" lon="6.33373">
        <ele>518</ele>
        <time>2019-02-24T12:51:41Z</time>
      </trkpt>
      <trkpt lat="43.2112" lon="6.33368">
        <ele>519</ele>
        <time>2019-02-24T12:51:46Z</time>
      </trkpt>
      <trkpt lat="43.21116" lon="6.33363">
        <ele>519</ele>
        <time>2019-02-24T12:51:52Z</time>
      </trkpt>
      <trkpt lat="43.21113" lon="6.33355">
        <ele>518</ele>
        <time>2019-02-24T12:52:01Z</time>
      </trkpt>
      <trkpt lat="43.21107" lon="6.33354">
        <ele>518</ele>
        <time>2019-02-24T12:52:08Z</time>
      </trkpt>
      <trkpt lat="43.21102" lon="6.33353">
        <ele>518</ele>
        <time>2019-02-24T12:52:14Z</time>
      </trkpt>
      <trkpt lat="43.21096" lon="6.33351">
        <ele>517</ele>
        <time>2019-02-24T12:52:21Z</time>
      </trkpt>
      <trkpt lat="43.21091" lon="6.33353">
        <ele>518</ele>
        <time>2019-02-24T12:52:26Z</time>
      </trkpt>
      <trkpt lat="43.21081" lon="6.33359">
        <ele>519</ele>
        <time>2019-02-24T12:52:39Z</time>
      </trkpt>
      <trkpt lat="43.21076" lon="6.33362">
        <ele>520</ele>
        <time>2019-02-24T12:52:45Z</time>
      </trkpt>
      <trkpt lat="43.21071" lon="6.33367">
        <ele>521</ele>
        <time>2019-02-24T12:52:55Z</time>
      </trkpt>
      <trkpt lat="43.21068" lon="6.33373">
        <ele>520</ele>
        <time>2019-02-24T12:53:01Z</time>
      </trkpt>
      <trkpt lat="43.21072" lon="6.33377">
        <ele>520</ele>
        <time>2019-02-24T12:53:10Z</time>
      </trkpt>
      <trkpt lat="43.21086" lon="6.33406">
        <ele>522</ele>
        <time>2019-02-24T12:53:45Z</time>
      </trkpt>
      <trkpt lat="43.21091" lon="6.33422">
        <ele>520</ele>
        <time>2019-02-24T12:54:00Z</time>
      </trkpt>
      <trkpt lat="43.21093" lon="6.3343">
        <ele>520</ele>
        <time>2019-02-24T12:54:07Z</time>
      </trkpt>
      <trkpt lat="43.21098" lon="6.33441">
        <ele>522</ele>
        <time>2019-02-24T12:54:49Z</time>
      </trkpt>
      <trkpt lat="43.211" lon="6.33453">
        <ele>524</ele>
        <time>2019-02-24T12:54:57Z</time>
      </trkpt>
      <trkpt lat="43.21104" lon="6.33481">
        <ele>525</ele>
        <time>2019-02-24T12:55:16Z</time>
      </trkpt>
      <trkpt lat="43.21109" lon="6.33522">
        <ele>525</ele>
        <time>2019-02-24T12:55:40Z</time>
      </trkpt>
      <trkpt lat="43.2111" lon="6.33537">
        <ele>526</ele>
        <time>2019-02-24T12:55:49Z</time>
      </trkpt>
      <trkpt lat="43.21111" lon="6.33593">
        <ele>524</ele>
        <time>2019-02-24T12:56:21Z</time>
      </trkpt>
      <trkpt lat="43.21111" lon="6.33608">
        <ele>524</ele>
        <time>2019-02-24T12:56:30Z</time>
      </trkpt>
      <trkpt lat="43.21115" lon="6.33622">
        <ele>525</ele>
        <time>2019-02-24T12:56:37Z</time>
      </trkpt>
      <trkpt lat="43.21147" lon="6.33657">
        <ele>524</ele>
        <time>2019-02-24T12:57:11Z</time>
      </trkpt>
      <trkpt lat="43.21154" lon="6.33666">
        <ele>523</ele>
        <time>2019-02-24T12:57:19Z</time>
      </trkpt>
      <trkpt lat="43.21153" lon="6.33677">
        <ele>521</ele>
        <time>2019-02-24T12:57:27Z</time>
      </trkpt>
      <trkpt lat="43.21146" lon="6.33699">
        <ele>520</ele>
        <time>2019-02-24T12:57:42Z</time>
      </trkpt>
      <trkpt lat="43.21143" lon="6.33709">
        <ele>519</ele>
        <time>2019-02-24T12:57:49Z</time>
      </trkpt>
      <trkpt lat="43.21142" lon="6.3372">
        <ele>518</ele>
        <time>2019-02-24T12:57:56Z</time>
      </trkpt>
      <trkpt lat="43.21155" lon="6.33759">
        <ele>514</ele>
        <time>2019-02-24T12:58:26Z</time>
      </trkpt>
      <trkpt lat="43.21167" lon="6.33777">
        <ele>514</ele>
        <time>2019-02-24T12:58:41Z</time>
      </trkpt>
      <trkpt lat="43.21175" lon="6.33809">
        <ele>512</ele>
        <time>2019-02-24T12:59:03Z</time>
      </trkpt>
      <trkpt lat="43.21174" lon="6.33818">
        <ele>511</ele>
        <time>2019-02-24T12:59:08Z</time>
      </trkpt>
      <trkpt lat="43.21173" lon="6.33829">
        <ele>508</ele>
        <time>2019-02-24T12:59:15Z</time>
      </trkpt>
      <trkpt lat="43.21173" lon="6.33842">
        <ele>508</ele>
        <time>2019-02-24T12:59:23Z</time>
      </trkpt>
      <trkpt lat="43.21171" lon="6.33852">
        <ele>507</ele>
        <time>2019-02-24T12:59:30Z</time>
      </trkpt>
      <trkpt lat="43.21163" lon="6.33881">
        <ele>507</ele>
        <time>2019-02-24T12:59:48Z</time>
      </trkpt>
      <trkpt lat="43.2116" lon="6.33894">
        <ele>508</ele>
        <time>2019-02-24T12:59:57Z</time>
      </trkpt>
      <trkpt lat="43.21153" lon="6.33939">
        <ele>504</ele>
        <time>2019-02-24T13:00:28Z</time>
      </trkpt>
      <trkpt lat="43.21148" lon="6.33967">
        <ele>505</ele>
        <time>2019-02-24T13:00:49Z</time>
      </trkpt>
      <trkpt lat="43.21142" lon="6.33977">
        <ele>505</ele>
        <time>2019-02-24T13:00:55Z</time>
      </trkpt>
      <trkpt lat="43.21141" lon="6.33991">
        <ele>505</ele>
        <time>2019-02-24T13:01:04Z</time>
      </trkpt>
      <trkpt lat="43.21145" lon="6.34004">
        <ele>506</ele>
        <time>2019-02-24T13:01:13Z</time>
      </trkpt>
      <trkpt lat="43.21157" lon="6.34004">
        <ele>504</ele>
        <time>2019-02-24T13:01:26Z</time>
      </trkpt>
      <trkpt lat="43.21167" lon="6.33999">
        <ele>502</ele>
        <time>2019-02-24T13:01:37Z</time>
      </trkpt>
      <trkpt lat="43.21176" lon="6.33989">
        <ele>500</ele>
        <time>2019-02-24T13:01:45Z</time>
      </trkpt>
      <trkpt lat="43.21183" lon="6.3398">
        <ele>498</ele>
        <time>2019-02-24T13:01:54Z</time>
      </trkpt>
      <trkpt lat="43.21188" lon="6.33968">
        <ele>498</ele>
        <time>2019-02-24T13:02:02Z</time>
      </trkpt>
      <trkpt lat="43.21198" lon="6.33946">
        <ele>498</ele>
        <time>2019-02-24T13:02:17Z</time>
      </trkpt>
      <trkpt lat="43.21222" lon="6.33901">
        <ele>498</ele>
        <time>2019-02-24T13:02:52Z</time>
      </trkpt>
      <trkpt lat="43.21227" lon="6.33886">
        <ele>498</ele>
        <time>2019-02-24T13:03:02Z</time>
      </trkpt>
      <trkpt lat="43.21237" lon="6.33858">
        <ele>499</ele>
        <time>2019-02-24T13:03:23Z</time>
      </trkpt>
      <trkpt lat="43.21245" lon="6.3383">
        <ele>499</ele>
        <time>2019-02-24T13:03:41Z</time>
      </trkpt>
      <trkpt lat="43.21247" lon="6.33815">
        <ele>496</ele>
        <time>2019-02-24T13:03:50Z</time>
      </trkpt>
      <trkpt lat="43.21251" lon="6.33802">
        <ele>495</ele>
        <time>2019-02-24T13:03:59Z</time>
      </trkpt>
      <trkpt lat="43.21252" lon="6.33791">
        <ele>489</ele>
        <time>2019-02-24T13:04:20Z</time>
      </trkpt>
      <trkpt lat="43.21253" lon="6.33764">
        <ele>487</ele>
        <time>2019-02-24T13:04:52Z</time>
      </trkpt>
      <trkpt lat="43.21254" lon="6.33751">
        <ele>488</ele>
        <time>2019-02-24T13:05:00Z</time>
      </trkpt>
      <trkpt lat="43.21262" lon="6.33742">
        <ele>488</ele>
        <time>2019-02-24T13:05:08Z</time>
      </trkpt>
      <trkpt lat="43.21269" lon="6.33738">
        <ele>488</ele>
        <time>2019-02-24T13:05:16Z</time>
      </trkpt>
      <trkpt lat="43.2128" lon="6.3374">
        <ele>488</ele>
        <time>2019-02-24T13:05:24Z</time>
      </trkpt>
      <trkpt lat="43.21287" lon="6.33747">
        <ele>488</ele>
        <time>2019-02-24T13:05:31Z</time>
      </trkpt>
      <trkpt lat="43.21304" lon="6.33758">
        <ele>485</ele>
        <time>2019-02-24T13:05:48Z</time>
      </trkpt>
      <trkpt lat="43.2132" lon="6.33778">
        <ele>483</ele>
        <time>2019-02-24T13:06:04Z</time>
      </trkpt>
      <trkpt lat="43.21332" lon="6.33797">
        <ele>482</ele>
        <time>2019-02-24T13:06:19Z</time>
      </trkpt>
      <trkpt lat="43.21336" lon="6.33809">
        <ele>481</ele>
        <time>2019-02-24T13:06:28Z</time>
      </trkpt>
      <trkpt lat="43.21338" lon="6.33833">
        <ele>480</ele>
        <time>2019-02-24T13:06:42Z</time>
      </trkpt>
      <trkpt lat="43.21341" lon="6.33844">
        <ele>480</ele>
        <time>2019-02-24T13:06:49Z</time>
      </trkpt>
      <trkpt lat="43.21339" lon="6.33854">
        <ele>479</ele>
        <time>2019-02-24T13:06:54Z</time>
      </trkpt>
      <trkpt lat="43.21345" lon="6.33875">
        <ele>478</ele>
        <time>2019-02-24T13:07:08Z</time>
      </trkpt>
      <trkpt lat="43.21352" lon="6.33895">
        <ele>477</ele>
        <time>2019-02-24T13:07:21Z</time>
      </trkpt>
      <trkpt lat="43.21361" lon="6.33913">
        <ele>477</ele>
        <time>2019-02-24T13:07:35Z</time>
      </trkpt>
      <trkpt lat="43.21369" lon="6.33917">
        <ele>476</ele>
        <time>2019-02-24T13:07:43Z</time>
      </trkpt>
      <trkpt lat="43.21376" lon="6.33917">
        <ele>476</ele>
        <time>2019-02-24T13:07:52Z</time>
      </trkpt>
      <trkpt lat="43.21381" lon="6.33909">
        <ele>477</ele>
        <time>2019-02-24T13:07:59Z</time>
      </trkpt>
      <trkpt lat="43.21385" lon="6.33901">
        <ele>477</ele>
        <time>2019-02-24T13:08:04Z</time>
      </trkpt>
      <trkpt lat="43.2139" lon="6.33882">
        <ele>479</ele>
        <time>2019-02-24T13:08:17Z</time>
      </trkpt>
      <trkpt lat="43.2139" lon="6.33872">
        <ele>479</ele>
        <time>2019-02-24T13:08:24Z</time>
      </trkpt>
      <trkpt lat="43.21392" lon="6.33861">
        <ele>480</ele>
        <time>2019-02-24T13:08:31Z</time>
      </trkpt>
      <trkpt lat="43.21401" lon="6.33848">
        <ele>481</ele>
        <time>2019-02-24T13:08:42Z</time>
      </trkpt>
      <trkpt lat="43.2142" lon="6.33838">
        <ele>478</ele>
        <time>2019-02-24T13:09:02Z</time>
      </trkpt>
      <trkpt lat="43.21425" lon="6.33831">
        <ele>478</ele>
        <time>2019-02-24T13:09:08Z</time>
      </trkpt>
      <trkpt lat="43.21432" lon="6.33826">
        <ele>478</ele>
        <time>2019-02-24T13:09:14Z</time>
      </trkpt>
      <trkpt lat="43.21459" lon="6.33792">
        <ele>477</ele>
        <time>2019-02-24T13:09:53Z</time>
      </trkpt>
      <trkpt lat="43.2147" lon="6.33779">
        <ele>478</ele>
        <time>2019-02-24T13:10:05Z</time>
      </trkpt>
      <trkpt lat="43.21475" lon="6.33772">
        <ele>478</ele>
        <time>2019-02-24T13:10:11Z</time>
      </trkpt>
      <trkpt lat="43.2148" lon="6.33762">
        <ele>478</ele>
        <time>2019-02-24T13:10:20Z</time>
      </trkpt>
      <trkpt lat="43.21488" lon="6.33752">
        <ele>477</ele>
        <time>2019-02-24T13:10:30Z</time>
      </trkpt>
      <trkpt lat="43.21496" lon="6.33745">
        <ele>478</ele>
        <time>2019-02-24T13:10:37Z</time>
      </trkpt>
      <trkpt lat="43.21502" lon="6.33736">
        <ele>479.1</ele>
        <time>2019-02-24T13:10:46Z</time>
      </trkpt>
      <trkpt lat="43.21504" lon="6.33734">
        <ele>478</ele>
        <time>2019-02-24T13:10:49Z</time>
      </trkpt>
      <trkpt lat="43.21524" lon="6.33716">
        <ele>477</ele>
        <time>2019-02-24T13:11:07Z</time>
      </trkpt>
      <trkpt lat="43.2155" lon="6.33687">
        <ele>479</ele>
        <time>2019-02-24T13:11:30Z</time>
      </trkpt>
      <trkpt lat="43.21559" lon="6.33679">
        <ele>478</ele>
        <time>2019-02-24T13:11:38Z</time>
      </trkpt>
      <trkpt lat="43.21584" lon="6.3367">
        <ele>478</ele>
        <time>2019-02-24T13:12:01Z</time>
      </trkpt>
      <trkpt lat="43.2159" lon="6.33669">
        <ele>478</ele>
        <time>2019-02-24T13:12:33Z</time>
      </trkpt>
      <trkpt lat="43.21598" lon="6.33661">
        <ele>477</ele>
        <time>2019-02-24T13:13:03Z</time>
      </trkpt>
      <trkpt lat="43.21628" lon="6.33649">
        <ele>477</ele>
        <time>2019-02-24T13:13:37Z</time>
      </trkpt>
      <trkpt lat="43.21635" lon="6.33647">
        <ele>477</ele>
        <time>2019-02-24T13:13:44Z</time>
      </trkpt>
      <trkpt lat="43.21648" lon="6.33652">
        <ele>477</ele>
        <time>2019-02-24T13:14:03Z</time>
      </trkpt>
      <trkpt lat="43.21671" lon="6.33683">
        <ele>475</ele>
        <time>2019-02-24T13:14:37Z</time>
      </trkpt>
      <trkpt lat="43.21677" lon="6.33692">
        <ele>476</ele>
        <time>2019-02-24T13:14:46Z</time>
      </trkpt>
      <trkpt lat="43.21683" lon="6.337">
        <ele>476</ele>
        <time>2019-02-24T13:14:54Z</time>
      </trkpt>
      <trkpt lat="43.21703" lon="6.33726">
        <ele>479</ele>
        <time>2019-02-24T13:15:21Z</time>
      </trkpt>
      <trkpt lat="43.2171" lon="6.33735">
        <ele>478</ele>
        <time>2019-02-24T13:15:29Z</time>
      </trkpt>
      <trkpt lat="43.21732" lon="6.33746">
        <ele>480</ele>
        <time>2019-02-24T13:16:07Z</time>
      </trkpt>
      <trkpt lat="43.2174" lon="6.33755">
        <ele>481</ele>
        <time>2019-02-24T13:16:18Z</time>
      </trkpt>
      <trkpt lat="43.21749" lon="6.33754">
        <ele>481</ele>
        <time>2019-02-24T13:16:26Z</time>
      </trkpt>
      <trkpt lat="43.21756" lon="6.33761">
        <ele>480</ele>
        <time>2019-02-24T13:16:42Z</time>
      </trkpt>
      <trkpt lat="43.21766" lon="6.3376">
        <ele>481</ele>
        <time>2019-02-24T13:16:49Z</time>
      </trkpt>
      <trkpt lat="43.21782" lon="6.3377">
        <ele>482</ele>
        <time>2019-02-24T13:17:15Z</time>
      </trkpt>
      <trkpt lat="43.21813" lon="6.33782">
        <ele>482</ele>
        <time>2019-02-24T13:17:45Z</time>
      </trkpt>
      <trkpt lat="43.21823" lon="6.33789">
        <ele>482</ele>
        <time>2019-02-24T13:17:54Z</time>
      </trkpt>
      <trkpt lat="43.21831" lon="6.33792">
        <ele>482</ele>
        <time>2019-02-24T13:18:02Z</time>
      </trkpt>
      <trkpt lat="43.2185" lon="6.33795">
        <ele>484</ele>
        <time>2019-02-24T13:18:18Z</time>
      </trkpt>
      <trkpt lat="43.2186" lon="6.33798">
        <ele>483</ele>
        <time>2019-02-24T13:18:26Z</time>
      </trkpt>
      <trkpt lat="43.21876" lon="6.33807">
        <ele>486</ele>
        <time>2019-02-24T13:18:49Z</time>
      </trkpt>
      <trkpt lat="43.21878" lon="6.33809">
        <ele>490</ele>
        <time>2019-02-24T13:20:17Z</time>
      </trkpt>
      <trkpt lat="43.21893" lon="6.3384">
        <ele>489</ele>
        <time>2019-02-24T13:20:46Z</time>
      </trkpt>
      <trkpt lat="43.21898" lon="6.33852">
        <ele>488</ele>
        <time>2019-02-24T13:20:56Z</time>
      </trkpt>
      <trkpt lat="43.21903" lon="6.33864">
        <ele>488</ele>
        <time>2019-02-24T13:21:06Z</time>
      </trkpt>
      <trkpt lat="43.21911" lon="6.33883">
        <ele>489</ele>
        <time>2019-02-24T13:21:27Z</time>
      </trkpt>
      <trkpt lat="43.21915" lon="6.33882">
        <ele>489</ele>
        <time>2019-02-24T13:23:00Z</time>
      </trkpt>
      <trkpt lat="43.2192" lon="6.33884">
        <ele>488</ele>
        <time>2019-02-24T13:25:29Z</time>
      </trkpt>
      <trkpt lat="43.21928" lon="6.33885">
        <ele>489</ele>
        <time>2019-02-24T13:25:41Z</time>
      </trkpt>
      <trkpt lat="43.21939" lon="6.3389">
        <ele>490</ele>
        <time>2019-02-24T13:25:52Z</time>
      </trkpt>
      <trkpt lat="43.21945" lon="6.33895">
        <ele>491</ele>
        <time>2019-02-24T13:26:03Z</time>
      </trkpt>
      <trkpt lat="43.21955" lon="6.33915">
        <ele>492</ele>
        <time>2019-02-24T13:26:19Z</time>
      </trkpt>
      <trkpt lat="43.21959" lon="6.33927">
        <ele>493</ele>
        <time>2019-02-24T13:26:31Z</time>
      </trkpt>
      <trkpt lat="43.21964" lon="6.33939">
        <ele>494</ele>
        <time>2019-02-24T13:26:39Z</time>
      </trkpt>
      <trkpt lat="43.21966" lon="6.33953">
        <ele>494</ele>
        <time>2019-02-24T13:26:48Z</time>
      </trkpt>
      <trkpt lat="43.21964" lon="6.33963">
        <ele>493</ele>
        <time>2019-02-24T13:26:55Z</time>
      </trkpt>
      <trkpt lat="43.21962" lon="6.3397">
        <ele>492</ele>
        <time>2019-02-24T13:27:24Z</time>
      </trkpt>
      <trkpt lat="43.21968" lon="6.33971">
        <ele>494</ele>
        <time>2019-02-24T13:27:34Z</time>
      </trkpt>
      <trkpt lat="43.21973" lon="6.33979">
        <ele>493</ele>
        <time>2019-02-24T13:27:42Z</time>
      </trkpt>
      <trkpt lat="43.21988" lon="6.33991">
        <ele>493</ele>
        <time>2019-02-24T13:27:55Z</time>
      </trkpt>
      <trkpt lat="43.21993" lon="6.33997">
        <ele>493</ele>
        <time>2019-02-24T13:28:01Z</time>
      </trkpt>
      <trkpt lat="43.21998" lon="6.34006">
        <ele>493</ele>
        <time>2019-02-24T13:28:09Z</time>
      </trkpt>
      <trkpt lat="43.21995" lon="6.34033">
        <ele>492</ele>
        <time>2019-02-24T13:28:27Z</time>
      </trkpt>
      <trkpt lat="43.21987" lon="6.34043">
        <ele>492</ele>
        <time>2019-02-24T13:28:37Z</time>
      </trkpt>
      <trkpt lat="43.21985" lon="6.34056">
        <ele>495</ele>
        <time>2019-02-24T13:28:45Z</time>
      </trkpt>
      <trkpt lat="43.21986" lon="6.34068">
        <ele>494</ele>
        <time>2019-02-24T13:28:53Z</time>
      </trkpt>
      <trkpt lat="43.21994" lon="6.34115">
        <ele>495</ele>
        <time>2019-02-24T13:29:19Z</time>
      </trkpt>
      <trkpt lat="43.21997" lon="6.34125">
        <ele>496</ele>
        <time>2019-02-24T13:29:25Z</time>
      </trkpt>
      <trkpt lat="43.22002" lon="6.34133">
        <ele>497</ele>
        <time>2019-02-24T13:29:31Z</time>
      </trkpt>
      <trkpt lat="43.22008" lon="6.3414">
        <ele>497</ele>
        <time>2019-02-24T13:29:38Z</time>
      </trkpt>
      <trkpt lat="43.22017" lon="6.34144">
        <ele>498</ele>
        <time>2019-02-24T13:29:47Z</time>
      </trkpt>
      <trkpt lat="43.22025" lon="6.34147">
        <ele>497</ele>
        <time>2019-02-24T13:29:53Z</time>
      </trkpt>
      <trkpt lat="43.22033" lon="6.34145">
        <ele>498</ele>
        <time>2019-02-24T13:29:59Z</time>
      </trkpt>
      <trkpt lat="43.2204" lon="6.34148">
        <ele>498</ele>
        <time>2019-02-24T13:30:07Z</time>
      </trkpt>
      <trkpt lat="43.22045" lon="6.34168">
        <ele>498</ele>
        <time>2019-02-24T13:30:19Z</time>
      </trkpt>
      <trkpt lat="43.22058" lon="6.34201">
        <ele>502</ele>
        <time>2019-02-24T13:30:51Z</time>
      </trkpt>
      <trkpt lat="43.22075" lon="6.34245">
        <ele>503</ele>
        <time>2019-02-24T13:31:26Z</time>
      </trkpt>
      <trkpt lat="43.22088" lon="6.34258">
        <ele>505</ele>
        <time>2019-02-24T13:31:42Z</time>
      </trkpt>
      <trkpt lat="43.22102" lon="6.34269">
        <ele>505</ele>
        <time>2019-02-24T13:31:57Z</time>
      </trkpt>
      <trkpt lat="43.2211" lon="6.34274">
        <ele>506</ele>
        <time>2019-02-24T13:32:05Z</time>
      </trkpt>
      <trkpt lat="43.22126" lon="6.34278">
        <ele>505</ele>
        <time>2019-02-24T13:32:18Z</time>
      </trkpt>
      <trkpt lat="43.22151" lon="6.34271">
        <ele>507</ele>
        <time>2019-02-24T13:32:39Z</time>
      </trkpt>
      <trkpt lat="43.2216" lon="6.34272">
        <ele>508</ele>
        <time>2019-02-24T13:32:47Z</time>
      </trkpt>
      <trkpt lat="43.22167" lon="6.34278">
        <ele>508</ele>
        <time>2019-02-24T13:32:54Z</time>
      </trkpt>
      <trkpt lat="43.2219" lon="6.34297">
        <ele>507</ele>
        <time>2019-02-24T13:33:15Z</time>
      </trkpt>
      <trkpt lat="43.22215" lon="6.34303">
        <ele>508</ele>
        <time>2019-02-24T13:33:36Z</time>
      </trkpt>
      <trkpt lat="43.22259" lon="6.34303">
        <ele>509</ele>
        <time>2019-02-24T13:34:08Z</time>
      </trkpt>
      <trkpt lat="43.22268" lon="6.34301">
        <ele>510</ele>
        <time>2019-02-24T13:34:15Z</time>
      </trkpt>
      <trkpt lat="43.22276" lon="6.34297">
        <ele>510</ele>
        <time>2019-02-24T13:34:23Z</time>
      </trkpt>
      <trkpt lat="43.22281" lon="6.34288">
        <ele>511</ele>
        <time>2019-02-24T13:34:31Z</time>
      </trkpt>
      <trkpt lat="43.22288" lon="6.3428">
        <ele>512</ele>
        <time>2019-02-24T13:34:40Z</time>
      </trkpt>
      <trkpt lat="43.22296" lon="6.34276">
        <ele>512</ele>
        <time>2019-02-24T13:34:47Z</time>
      </trkpt>
      <trkpt lat="43.22326" lon="6.34278">
        <ele>511</ele>
        <time>2019-02-24T13:35:14Z</time>
      </trkpt>
      <trkpt lat="43.22347" lon="6.34267">
        <ele>511</ele>
        <time>2019-02-24T13:35:32Z</time>
      </trkpt>
      <trkpt lat="43.22382" lon="6.34238">
        <ele>508</ele>
        <time>2019-02-24T13:36:08Z</time>
      </trkpt>
      <trkpt lat="43.22389" lon="6.3423">
        <ele>507</ele>
        <time>2019-02-24T13:36:15Z</time>
      </trkpt>
      <trkpt lat="43.22394" lon="6.34221">
        <ele>508</ele>
        <time>2019-02-24T13:36:22Z</time>
      </trkpt>
      <trkpt lat="43.224" lon="6.34213">
        <ele>507</ele>
        <time>2019-02-24T13:36:29Z</time>
      </trkpt>
      <trkpt lat="43.22416" lon="6.34214">
        <ele>508</ele>
        <time>2019-02-24T13:36:43Z</time>
      </trkpt>
      <trkpt lat="43.2243" lon="6.34226">
        <ele>507</ele>
        <time>2019-02-24T13:36:57Z</time>
      </trkpt>
      <trkpt lat="43.22439" lon="6.34228">
        <ele>507</ele>
        <time>2019-02-24T13:37:04Z</time>
      </trkpt>
      <trkpt lat="43.22457" lon="6.34231">
        <ele>510</ele>
        <time>2019-02-24T13:37:17Z</time>
      </trkpt>
      <trkpt lat="43.22466" lon="6.34228">
        <ele>510</ele>
        <time>2019-02-24T13:37:23Z</time>
      </trkpt>
      <trkpt lat="43.22476" lon="6.34224">
        <ele>511</ele>
        <time>2019-02-24T13:37:31Z</time>
      </trkpt>
      <trkpt lat="43.22495" lon="6.3422">
        <ele>511</ele>
        <time>2019-02-24T13:37:46Z</time>
      </trkpt>
      <trkpt lat="43.22504" lon="6.34218">
        <ele>512</ele>
        <time>2019-02-24T13:37:53Z</time>
      </trkpt>
      <trkpt lat="43.22514" lon="6.34219">
        <ele>513</ele>
        <time>2019-02-24T13:38:02Z</time>
      </trkpt>
      <trkpt lat="43.22519" lon="6.34224">
        <ele>514</ele>
        <time>2019-02-24T13:38:18Z</time>
      </trkpt>
      <trkpt lat="43.22521" lon="6.34219">
        <ele>515</ele>
        <time>2019-02-24T13:39:35Z</time>
      </trkpt>
      <trkpt lat="43.22525" lon="6.34215">
        <ele>514</ele>
        <time>2019-02-24T13:42:30Z</time>
      </trkpt>
      <trkpt lat="43.22541" lon="6.34211">
        <ele>515</ele>
        <time>2019-02-24T13:42:49Z</time>
      </trkpt>
      <trkpt lat="43.22547" lon="6.34207">
        <ele>515</ele>
        <time>2019-02-24T13:42:54Z</time>
      </trkpt>
      <trkpt lat="43.22551" lon="6.34202">
        <ele>515</ele>
        <time>2019-02-24T13:42:59Z</time>
      </trkpt>
      <trkpt lat="43.22553" lon="6.34195">
        <ele>515</ele>
        <time>2019-02-24T13:43:05Z</time>
      </trkpt>
      <trkpt lat="43.22555" lon="6.34188">
        <ele>516</ele>
        <time>2019-02-24T13:43:09Z</time>
      </trkpt>
      <trkpt lat="43.22562" lon="6.34177">
        <ele>515</ele>
        <time>2019-02-24T13:43:20Z</time>
      </trkpt>
      <trkpt lat="43.22577" lon="6.3417">
        <ele>514</ele>
        <time>2019-02-24T13:43:35Z</time>
      </trkpt>
      <trkpt lat="43.22583" lon="6.34172">
        <ele>514</ele>
        <time>2019-02-24T13:43:40Z</time>
      </trkpt>
      <trkpt lat="43.22589" lon="6.34174">
        <ele>514</ele>
        <time>2019-02-24T13:43:46Z</time>
      </trkpt>
      <trkpt lat="43.22595" lon="6.34172">
        <ele>514</ele>
        <time>2019-02-24T13:43:52Z</time>
      </trkpt>
      <trkpt lat="43.22602" lon="6.34172">
        <ele>514</ele>
        <time>2019-02-24T13:43:58Z</time>
      </trkpt>
      <trkpt lat="43.22617" lon="6.34174">
        <ele>515</ele>
        <time>2019-02-24T13:44:09Z</time>
      </trkpt>
      <trkpt lat="43.2264" lon="6.34159">
        <ele>511</ele>
        <time>2019-02-24T13:44:29Z</time>
      </trkpt>
      <trkpt lat="43.22647" lon="6.34155">
        <ele>511</ele>
        <time>2019-02-24T13:44:34Z</time>
      </trkpt>
      <trkpt lat="43.22651" lon="6.34148">
        <ele>510</ele>
        <time>2019-02-24T13:44:40Z</time>
      </trkpt>
      <trkpt lat="43.22655" lon="6.34141">
        <ele>509</ele>
        <time>2019-02-24T13:44:45Z</time>
      </trkpt>
      <trkpt lat="43.22657" lon="6.34131">
        <ele>509</ele>
        <time>2019-02-24T13:44:51Z</time>
      </trkpt>
      <trkpt lat="43.22653" lon="6.34097">
        <ele>509</ele>
        <time>2019-02-24T13:45:11Z</time>
      </trkpt>
      <trkpt lat="43.22648" lon="6.34082">
        <ele>508</ele>
        <time>2019-02-24T13:45:21Z</time>
      </trkpt>
      <trkpt lat="43.22645" lon="6.34075">
        <ele>508</ele>
        <time>2019-02-24T13:45:26Z</time>
      </trkpt>
      <trkpt lat="43.2264" lon="6.34067">
        <ele>507</ele>
        <time>2019-02-24T13:45:32Z</time>
      </trkpt>
      <trkpt lat="43.22637" lon="6.34061">
        <ele>507</ele>
        <time>2019-02-24T13:45:36Z</time>
      </trkpt>
      <trkpt lat="43.22638" lon="6.34052">
        <ele>507</ele>
        <time>2019-02-24T13:45:42Z</time>
      </trkpt>
      <trkpt lat="43.2264" lon="6.34046">
        <ele>507</ele>
        <time>2019-02-24T13:45:46Z</time>
      </trkpt>
      <trkpt lat="43.22649" lon="6.34009">
        <ele>504</ele>
        <time>2019-02-24T13:46:11Z</time>
      </trkpt>
      <trkpt lat="43.22649" lon="6.34001">
        <ele>504</ele>
        <time>2019-02-24T13:46:15Z</time>
      </trkpt>
      <trkpt lat="43.2266" lon="6.33967">
        <ele>503</ele>
        <time>2019-02-24T13:46:38Z</time>
      </trkpt>
      <trkpt lat="43.22661" lon="6.33959">
        <ele>503</ele>
        <time>2019-02-24T13:46:43Z</time>
      </trkpt>
      <trkpt lat="43.22666" lon="6.33943">
        <ele>502</ele>
        <time>2019-02-24T13:46:53Z</time>
      </trkpt>
      <trkpt lat="43.22669" lon="6.33916">
        <ele>501</ele>
        <time>2019-02-24T13:47:09Z</time>
      </trkpt>
      <trkpt lat="43.22671" lon="6.33908">
        <ele>500</ele>
        <time>2019-02-24T13:47:14Z</time>
      </trkpt>
      <trkpt lat="43.22675" lon="6.33893">
        <ele>499</ele>
        <time>2019-02-24T13:47:23Z</time>
      </trkpt>
      <trkpt lat="43.22677" lon="6.33887">
        <ele>499</ele>
        <time>2019-02-24T13:47:27Z</time>
      </trkpt>
      <trkpt lat="43.22682" lon="6.33868">
        <ele>500</ele>
        <time>2019-02-24T13:47:39Z</time>
      </trkpt>
      <trkpt lat="43.22685" lon="6.33859">
        <ele>500</ele>
        <time>2019-02-24T13:47:44Z</time>
      </trkpt>
      <trkpt lat="43.22688" lon="6.33851">
        <ele>500</ele>
        <time>2019-02-24T13:47:49Z</time>
      </trkpt>
      <trkpt lat="43.2269" lon="6.33844">
        <ele>499</ele>
        <time>2019-02-24T13:47:55Z</time>
      </trkpt>
      <trkpt lat="43.22696" lon="6.33839">
        <ele>497</ele>
        <time>2019-02-24T13:48:00Z</time>
      </trkpt>
      <trkpt lat="43.227" lon="6.33847">
        <ele>497</ele>
        <time>2019-02-24T13:48:08Z</time>
      </trkpt>
      <trkpt lat="43.22701" lon="6.33857">
        <ele>492</ele>
        <time>2019-02-24T13:48:15Z</time>
      </trkpt>
      <trkpt lat="43.22702" lon="6.33865">
        <ele>492</ele>
        <time>2019-02-24T13:48:20Z</time>
      </trkpt>
      <trkpt lat="43.22702" lon="6.33881">
        <ele>489</ele>
        <time>2019-02-24T13:48:31Z</time>
      </trkpt>
      <trkpt lat="43.22706" lon="6.33889">
        <ele>487</ele>
        <time>2019-02-24T13:48:37Z</time>
      </trkpt>
      <trkpt lat="43.22712" lon="6.33892">
        <ele>488</ele>
        <time>2019-02-24T13:48:42Z</time>
      </trkpt>
      <trkpt lat="43.22717" lon="6.3389">
        <ele>488</ele>
        <time>2019-02-24T13:48:47Z</time>
      </trkpt>
      <trkpt lat="43.22725" lon="6.33891">
        <ele>489</ele>
        <time>2019-02-24T13:48:54Z</time>
      </trkpt>
      <trkpt lat="43.22739" lon="6.33897">
        <ele>491</ele>
        <time>2019-02-24T13:49:05Z</time>
      </trkpt>
      <trkpt lat="43.22743" lon="6.33901">
        <ele>489</ele>
        <time>2019-02-24T13:49:10Z</time>
      </trkpt>
      <trkpt lat="43.22748" lon="6.33907">
        <ele>488</ele>
        <time>2019-02-24T13:49:15Z</time>
      </trkpt>
      <trkpt lat="43.22756" lon="6.3392">
        <ele>487</ele>
        <time>2019-02-24T13:49:24Z</time>
      </trkpt>
      <trkpt lat="43.2276" lon="6.33926">
        <ele>486</ele>
        <time>2019-02-24T13:49:29Z</time>
      </trkpt>
      <trkpt lat="43.22773" lon="6.33951">
        <ele>485</ele>
        <time>2019-02-24T13:49:47Z</time>
      </trkpt>
      <trkpt lat="43.2279" lon="6.33977">
        <ele>484</ele>
        <time>2019-02-24T13:50:07Z</time>
      </trkpt>
      <trkpt lat="43.22794" lon="6.33984">
        <ele>484</ele>
        <time>2019-02-24T13:50:12Z</time>
      </trkpt>
      <trkpt lat="43.22797" lon="6.33991">
        <ele>484</ele>
        <time>2019-02-24T13:50:18Z</time>
      </trkpt>
      <trkpt lat="43.22801" lon="6.33998">
        <ele>484</ele>
        <time>2019-02-24T13:50:22Z</time>
      </trkpt>
      <trkpt lat="43.22806" lon="6.34005">
        <ele>484</ele>
        <time>2019-02-24T13:50:27Z</time>
      </trkpt>
      <trkpt lat="43.22813" lon="6.34028">
        <ele>486</ele>
        <time>2019-02-24T13:50:41Z</time>
      </trkpt>
      <trkpt lat="43.22816" lon="6.34043">
        <ele>485</ele>
        <time>2019-02-24T13:50:50Z</time>
      </trkpt>
      <trkpt lat="43.2282" lon="6.34058">
        <ele>484</ele>
        <time>2019-02-24T13:50:59Z</time>
      </trkpt>
      <trkpt lat="43.22827" lon="6.34071">
        <ele>484</ele>
        <time>2019-02-24T13:51:09Z</time>
      </trkpt>
      <trkpt lat="43.22839" lon="6.34082">
        <ele>484</ele>
        <time>2019-02-24T13:51:21Z</time>
      </trkpt>
      <trkpt lat="43.22843" lon="6.34087">
        <ele>484</ele>
        <time>2019-02-24T13:51:25Z</time>
      </trkpt>
      <trkpt lat="43.22852" lon="6.341">
        <ele>483</ele>
        <time>2019-02-24T13:51:34Z</time>
      </trkpt>
      <trkpt lat="43.22864" lon="6.34118">
        <ele>484</ele>
        <time>2019-02-24T13:51:50Z</time>
      </trkpt>
      <trkpt lat="43.2287" lon="6.34123">
        <ele>485</ele>
        <time>2019-02-24T13:51:57Z</time>
      </trkpt>
      <trkpt lat="43.22875" lon="6.34129">
        <ele>485</ele>
        <time>2019-02-24T13:52:02Z</time>
      </trkpt>
      <trkpt lat="43.22887" lon="6.34138">
        <ele>486</ele>
        <time>2019-02-24T13:52:12Z</time>
      </trkpt>
      <trkpt lat="43.229" lon="6.34137">
        <ele>487</ele>
        <time>2019-02-24T13:52:24Z</time>
      </trkpt>
      <trkpt lat="43.22906" lon="6.34137">
        <ele>487</ele>
        <time>2019-02-24T13:52:30Z</time>
      </trkpt>
      <trkpt lat="43.22912" lon="6.34136">
        <ele>487</ele>
        <time>2019-02-24T13:52:35Z</time>
      </trkpt>
      <trkpt lat="43.22941" lon="6.34134">
        <ele>483</ele>
        <time>2019-02-24T13:53:10Z</time>
      </trkpt>
      <trkpt lat="43.22947" lon="6.34137">
        <ele>481</ele>
        <time>2019-02-24T13:53:19Z</time>
      </trkpt>
      <trkpt lat="43.22955" lon="6.3414">
        <ele>481</ele>
        <time>2019-02-24T13:53:26Z</time>
      </trkpt>
      <trkpt lat="43.22961" lon="6.34143">
        <ele>481</ele>
        <time>2019-02-24T13:53:32Z</time>
      </trkpt>
      <trkpt lat="43.22974" lon="6.34147">
        <ele>480</ele>
        <time>2019-02-24T13:53:42Z</time>
      </trkpt>
      <trkpt lat="43.22987" lon="6.3415">
        <ele>480</ele>
        <time>2019-02-24T13:53:54Z</time>
      </trkpt>
      <trkpt lat="43.23001" lon="6.34151">
        <ele>478</ele>
        <time>2019-02-24T13:54:07Z</time>
      </trkpt>
      <trkpt lat="43.23028" lon="6.34165">
        <ele>476</ele>
        <time>2019-02-24T13:54:39Z</time>
      </trkpt>
      <trkpt lat="43.2305" lon="6.34175">
        <ele>478</ele>
        <time>2019-02-24T13:55:00Z</time>
      </trkpt>
      <trkpt lat="43.23056" lon="6.34174">
        <ele>477</ele>
        <time>2019-02-24T13:55:06Z</time>
      </trkpt>
      <trkpt lat="43.23068" lon="6.34177">
        <ele>476</ele>
        <time>2019-02-24T13:55:18Z</time>
      </trkpt>
      <trkpt lat="43.23101" lon="6.34176">
        <ele>477</ele>
        <time>2019-02-24T13:55:46Z</time>
      </trkpt>
      <trkpt lat="43.23109" lon="6.34177">
        <ele>477</ele>
        <time>2019-02-24T13:55:53Z</time>
      </trkpt>
      <trkpt lat="43.23115" lon="6.34181">
        <ele>478</ele>
        <time>2019-02-24T13:55:58Z</time>
      </trkpt>
      <trkpt lat="43.2312" lon="6.34186">
        <ele>477</ele>
        <time>2019-02-24T13:56:03Z</time>
      </trkpt>
      <trkpt lat="43.23125" lon="6.3419">
        <ele>474</ele>
        <time>2019-02-24T13:56:08Z</time>
      </trkpt>
      <trkpt lat="43.23126" lon="6.34199">
        <ele>473</ele>
        <time>2019-02-24T13:56:15Z</time>
      </trkpt>
      <trkpt lat="43.23124" lon="6.34205">
        <ele>471</ele>
        <time>2019-02-24T13:56:19Z</time>
      </trkpt>
      <trkpt lat="43.2312" lon="6.3421">
        <ele>471</ele>
        <time>2019-02-24T13:56:24Z</time>
      </trkpt>
      <trkpt lat="43.23119" lon="6.34218">
        <ele>469</ele>
        <time>2019-02-24T13:56:29Z</time>
      </trkpt>
      <trkpt lat="43.23123" lon="6.34224">
        <ele>468</ele>
        <time>2019-02-24T13:56:35Z</time>
      </trkpt>
      <trkpt lat="43.23128" lon="6.34227">
        <ele>467</ele>
        <time>2019-02-24T13:56:40Z</time>
      </trkpt>
      <trkpt lat="43.23141" lon="6.34224">
        <ele>466</ele>
        <time>2019-02-24T13:56:52Z</time>
      </trkpt>
      <trkpt lat="43.23145" lon="6.34217">
        <ele>466</ele>
        <time>2019-02-24T13:56:57Z</time>
      </trkpt>
      <trkpt lat="43.2315" lon="6.34213">
        <ele>466</ele>
        <time>2019-02-24T13:57:02Z</time>
      </trkpt>
      <trkpt lat="43.2316" lon="6.34206">
        <ele>465</ele>
        <time>2019-02-24T13:57:11Z</time>
      </trkpt>
      <trkpt lat="43.23174" lon="6.34191">
        <ele>463</ele>
        <time>2019-02-24T13:57:25Z</time>
      </trkpt>
      <trkpt lat="43.23175" lon="6.34185">
        <ele>463</ele>
        <time>2019-02-24T13:57:29Z</time>
      </trkpt>
      <trkpt lat="43.23175" lon="6.34176">
        <ele>463</ele>
        <time>2019-02-24T13:57:34Z</time>
      </trkpt>
      <trkpt lat="43.23178" lon="6.3417">
        <ele>463</ele>
        <time>2019-02-24T13:57:39Z</time>
      </trkpt>
      <trkpt lat="43.23184" lon="6.34172">
        <ele>462</ele>
        <time>2019-02-24T13:57:45Z</time>
      </trkpt>
      <trkpt lat="43.23187" lon="6.34179">
        <ele>462</ele>
        <time>2019-02-24T13:57:51Z</time>
      </trkpt>
      <trkpt lat="43.23188" lon="6.34186">
        <ele>461</ele>
        <time>2019-02-24T13:57:56Z</time>
      </trkpt>
      <trkpt lat="43.23186" lon="6.34193">
        <ele>460</ele>
        <time>2019-02-24T13:58:00Z</time>
      </trkpt>
      <trkpt lat="43.23186" lon="6.342">
        <ele>460</ele>
        <time>2019-02-24T13:58:05Z</time>
      </trkpt>
      <trkpt lat="43.23187" lon="6.34206">
        <ele>458</ele>
        <time>2019-02-24T13:58:09Z</time>
      </trkpt>
      <trkpt lat="43.23191" lon="6.3421">
        <ele>457</ele>
        <time>2019-02-24T13:58:13Z</time>
      </trkpt>
      <trkpt lat="43.23196" lon="6.34211">
        <ele>456</ele>
        <time>2019-02-24T13:58:18Z</time>
      </trkpt>
      <trkpt lat="43.23201" lon="6.34208">
        <ele>456</ele>
        <time>2019-02-24T13:58:23Z</time>
      </trkpt>
      <trkpt lat="43.23204" lon="6.34203">
        <ele>455</ele>
        <time>2019-02-24T13:58:27Z</time>
      </trkpt>
      <trkpt lat="43.23218" lon="6.34179">
        <ele>456</ele>
        <time>2019-02-24T13:58:44Z</time>
      </trkpt>
      <trkpt lat="43.23224" lon="6.34176">
        <ele>456</ele>
        <time>2019-02-24T13:58:50Z</time>
      </trkpt>
      <trkpt lat="43.2323" lon="6.34177">
        <ele>456</ele>
        <time>2019-02-24T13:58:54Z</time>
      </trkpt>
      <trkpt lat="43.23237" lon="6.34181">
        <ele>454</ele>
        <time>2019-02-24T13:59:00Z</time>
      </trkpt>
      <trkpt lat="43.23243" lon="6.3418">
        <ele>453</ele>
        <time>2019-02-24T13:59:05Z</time>
      </trkpt>
      <trkpt lat="43.23249" lon="6.34182">
        <ele>453</ele>
        <time>2019-02-24T13:59:09Z</time>
      </trkpt>
      <trkpt lat="43.23256" lon="6.34184">
        <ele>453</ele>
        <time>2019-02-24T13:59:14Z</time>
      </trkpt>
      <trkpt lat="43.23262" lon="6.34183">
        <ele>454</ele>
        <time>2019-02-24T13:59:19Z</time>
      </trkpt>
      <trkpt lat="43.23273" lon="6.34191">
        <ele>453</ele>
        <time>2019-02-24T13:59:29Z</time>
      </trkpt>
      <trkpt lat="43.23278" lon="6.34189">
        <ele>452</ele>
        <time>2019-02-24T13:59:33Z</time>
      </trkpt>
      <trkpt lat="43.23297" lon="6.34197">
        <ele>451</ele>
        <time>2019-02-24T13:59:51Z</time>
      </trkpt>
      <trkpt lat="43.23335" lon="6.34205">
        <ele>447</ele>
        <time>2019-02-24T14:00:22Z</time>
      </trkpt>
      <trkpt lat="43.23348" lon="6.34202">
        <ele>445</ele>
        <time>2019-02-24T14:00:33Z</time>
      </trkpt>
      <trkpt lat="43.23355" lon="6.34203">
        <ele>445</ele>
        <time>2019-02-24T14:00:39Z</time>
      </trkpt>
      <trkpt lat="43.23367" lon="6.34213">
        <ele>444</ele>
        <time>2019-02-24T14:00:50Z</time>
      </trkpt>
      <trkpt lat="43.23382" lon="6.34235">
        <ele>439</ele>
        <time>2019-02-24T14:01:10Z</time>
      </trkpt>
      <trkpt lat="43.23391" lon="6.34253">
        <ele>440</ele>
        <time>2019-02-24T14:01:22Z</time>
      </trkpt>
      <trkpt lat="43.23395" lon="6.34257">
        <ele>440</ele>
        <time>2019-02-24T14:01:27Z</time>
      </trkpt>
      <trkpt lat="43.234" lon="6.34263">
        <ele>440</ele>
        <time>2019-02-24T14:01:33Z</time>
      </trkpt>
      <trkpt lat="43.23419" lon="6.34298">
        <ele>440</ele>
        <time>2019-02-24T14:01:58Z</time>
      </trkpt>
      <trkpt lat="43.23452" lon="6.34331">
        <ele>440</ele>
        <time>2019-02-24T14:02:31Z</time>
      </trkpt>
      <trkpt lat="43.23456" lon="6.34335">
        <ele>439</ele>
        <time>2019-02-24T14:02:35Z</time>
      </trkpt>
      <trkpt lat="43.2346" lon="6.34341">
        <ele>439</ele>
        <time>2019-02-24T14:02:39Z</time>
      </trkpt>
      <trkpt lat="43.23486" lon="6.34369">
        <ele>439</ele>
        <time>2019-02-24T14:03:04Z</time>
      </trkpt>
      <trkpt lat="43.23497" lon="6.34378">
        <ele>440</ele>
        <time>2019-02-24T14:03:14Z</time>
      </trkpt>
      <trkpt lat="43.23513" lon="6.34384">
        <ele>443</ele>
        <time>2019-02-24T14:03:26Z</time>
      </trkpt>
      <trkpt lat="43.23522" lon="6.34389">
        <ele>442</ele>
        <time>2019-02-24T14:03:36Z</time>
      </trkpt>
      <trkpt lat="43.23533" lon="6.34394">
        <ele>442</ele>
        <time>2019-02-24T14:05:00Z</time>
      </trkpt>
      <trkpt lat="43.23553" lon="6.344">
        <ele>442</ele>
        <time>2019-02-24T14:05:19Z</time>
      </trkpt>
      <trkpt lat="43.23565" lon="6.344">
        <ele>442</ele>
        <time>2019-02-24T14:05:28Z</time>
      </trkpt>
      <trkpt lat="43.23583" lon="6.34397">
        <ele>440</ele>
        <time>2019-02-24T14:05:42Z</time>
      </trkpt>
      <trkpt lat="43.23601" lon="6.34391">
        <ele>438</ele>
        <time>2019-02-24T14:05:57Z</time>
      </trkpt>
      <trkpt lat="43.23607" lon="6.34387">
        <ele>438</ele>
        <time>2019-02-24T14:06:01Z</time>
      </trkpt>
      <trkpt lat="43.23614" lon="6.34386">
        <ele>437</ele>
        <time>2019-02-24T14:06:07Z</time>
      </trkpt>
      <trkpt lat="43.23633" lon="6.34382">
        <ele>437</ele>
        <time>2019-02-24T14:06:25Z</time>
      </trkpt>
      <trkpt lat="43.23644" lon="6.34388">
        <ele>435</ele>
        <time>2019-02-24T14:06:34Z</time>
      </trkpt>
      <trkpt lat="43.23656" lon="6.34402">
        <ele>433</ele>
        <time>2019-02-24T14:06:47Z</time>
      </trkpt>
      <trkpt lat="43.23658" lon="6.34409">
        <ele>433</ele>
        <time>2019-02-24T14:06:52Z</time>
      </trkpt>
      <trkpt lat="43.23661" lon="6.34413">
        <ele>433</ele>
        <time>2019-02-24T14:06:56Z</time>
      </trkpt>
      <trkpt lat="43.23661" lon="6.3443">
        <ele>432</ele>
        <time>2019-02-24T14:07:06Z</time>
      </trkpt>
      <trkpt lat="43.23659" lon="6.34441">
        <ele>433</ele>
        <time>2019-02-24T14:07:13Z</time>
      </trkpt>
      <trkpt lat="43.23658" lon="6.34452">
        <ele>431</ele>
        <time>2019-02-24T14:07:19Z</time>
      </trkpt>
      <trkpt lat="43.23659" lon="6.34459">
        <ele>430</ele>
        <time>2019-02-24T14:07:23Z</time>
      </trkpt>
      <trkpt lat="43.2366" lon="6.34474">
        <ele>430</ele>
        <time>2019-02-24T14:07:32Z</time>
      </trkpt>
      <trkpt lat="43.2366" lon="6.34486">
        <ele>430</ele>
        <time>2019-02-24T14:07:41Z</time>
      </trkpt>
      <trkpt lat="43.23658" lon="6.34493">
        <ele>430</ele>
        <time>2019-02-24T14:07:45Z</time>
      </trkpt>
      <trkpt lat="43.23658" lon="6.34499">
        <ele>430</ele>
        <time>2019-02-24T14:07:49Z</time>
      </trkpt>
      <trkpt lat="43.23659" lon="6.34512">
        <ele>431</ele>
        <time>2019-02-24T14:07:58Z</time>
      </trkpt>
      <trkpt lat="43.23655" lon="6.34543">
        <ele>430</ele>
        <time>2019-02-24T14:08:18Z</time>
      </trkpt>
      <trkpt lat="43.23655" lon="6.34557">
        <ele>430</ele>
        <time>2019-02-24T14:08:27Z</time>
      </trkpt>
      <trkpt lat="43.23655" lon="6.34563">
        <ele>430</ele>
        <time>2019-02-24T14:08:32Z</time>
      </trkpt>
      <trkpt lat="43.23661" lon="6.34582">
        <ele>427</ele>
        <time>2019-02-24T14:08:45Z</time>
      </trkpt>
      <trkpt lat="43.23664" lon="6.34588">
        <ele>426</ele>
        <time>2019-02-24T14:08:49Z</time>
      </trkpt>
      <trkpt lat="43.23667" lon="6.34595">
        <ele>425</ele>
        <time>2019-02-24T14:08:55Z</time>
      </trkpt>
      <trkpt lat="43.2367" lon="6.34602">
        <ele>425</ele>
        <time>2019-02-24T14:09:01Z</time>
      </trkpt>
      <trkpt lat="43.23675" lon="6.34609">
        <ele>424</ele>
        <time>2019-02-24T14:09:07Z</time>
      </trkpt>
      <trkpt lat="43.23681" lon="6.34617">
        <ele>423</ele>
        <time>2019-02-24T14:09:15Z</time>
      </trkpt>
      <trkpt lat="43.23692" lon="6.34625">
        <ele>422</ele>
        <time>2019-02-24T14:09:25Z</time>
      </trkpt>
      <trkpt lat="43.23698" lon="6.3463">
        <ele>421</ele>
        <time>2019-02-24T14:09:30Z</time>
      </trkpt>
      <trkpt lat="43.23708" lon="6.34637">
        <ele>421</ele>
        <time>2019-02-24T14:09:40Z</time>
      </trkpt>
      <trkpt lat="43.23715" lon="6.34646">
        <ele>420</ele>
        <time>2019-02-24T14:09:49Z</time>
      </trkpt>
      <trkpt lat="43.23718" lon="6.34653">
        <ele>419</ele>
        <time>2019-02-24T14:09:54Z</time>
      </trkpt>
      <trkpt lat="43.23724" lon="6.34669">
        <ele>419</ele>
        <time>2019-02-24T14:10:07Z</time>
      </trkpt>
      <trkpt lat="43.23728" lon="6.3468">
        <ele>418</ele>
        <time>2019-02-24T14:10:15Z</time>
      </trkpt>
      <trkpt lat="43.23731" lon="6.34685">
        <ele>418</ele>
        <time>2019-02-24T14:10:20Z</time>
      </trkpt>
      <trkpt lat="43.23731" lon="6.3469">
        <ele>417</ele>
        <time>2019-02-24T14:10:24Z</time>
      </trkpt>
      <trkpt lat="43.23737" lon="6.34698">
        <ele>415</ele>
        <time>2019-02-24T14:10:32Z</time>
      </trkpt>
      <trkpt lat="43.2374" lon="6.34704">
        <ele>415</ele>
        <time>2019-02-24T14:10:37Z</time>
      </trkpt>
      <trkpt lat="43.23749" lon="6.34714">
        <ele>415</ele>
        <time>2019-02-24T14:10:46Z</time>
      </trkpt>
      <trkpt lat="43.23751" lon="6.34718">
        <ele>414</ele>
        <time>2019-02-24T14:10:49Z</time>
      </trkpt>
      <trkpt lat="43.23749" lon="6.34723">
        <ele>414</ele>
        <time>2019-02-24T14:10:53Z</time>
      </trkpt>
      <trkpt lat="43.23745" lon="6.34726">
        <ele>415</ele>
        <time>2019-02-24T14:10:57Z</time>
      </trkpt>
      <trkpt lat="43.23737" lon="6.34721">
        <ele>414</ele>
        <time>2019-02-24T14:11:06Z</time>
      </trkpt>
      <trkpt lat="43.2372" lon="6.34704">
        <ele>412</ele>
        <time>2019-02-24T14:11:25Z</time>
      </trkpt>
      <trkpt lat="43.23706" lon="6.34696">
        <ele>411</ele>
        <time>2019-02-24T14:11:37Z</time>
      </trkpt>
      <trkpt lat="43.23692" lon="6.34692">
        <ele>410</ele>
        <time>2019-02-24T14:11:50Z</time>
      </trkpt>
      <trkpt lat="43.23684" lon="6.34685">
        <ele>410</ele>
        <time>2019-02-24T14:11:58Z</time>
      </trkpt>
      <trkpt lat="43.23678" lon="6.34676">
        <ele>409</ele>
        <time>2019-02-24T14:12:06Z</time>
      </trkpt>
      <trkpt lat="43.23664" lon="6.34667">
        <ele>408</ele>
        <time>2019-02-24T14:12:19Z</time>
      </trkpt>
      <trkpt lat="43.23658" lon="6.34669">
        <ele>409</ele>
        <time>2019-02-24T14:12:24Z</time>
      </trkpt>
      <trkpt lat="43.23653" lon="6.34667">
        <ele>409</ele>
        <time>2019-02-24T14:12:30Z</time>
      </trkpt>
      <trkpt lat="43.23619" lon="6.3465">
        <ele>407</ele>
        <time>2019-02-24T14:13:00Z</time>
      </trkpt>
      <trkpt lat="43.23604" lon="6.34648">
        <ele>407</ele>
        <time>2019-02-24T14:13:12Z</time>
      </trkpt>
      <trkpt lat="43.236" lon="6.34646">
        <ele>407</ele>
        <time>2019-02-24T14:13:16Z</time>
      </trkpt>
      <trkpt lat="43.23594" lon="6.34645">
        <ele>407</ele>
        <time>2019-02-24T14:13:23Z</time>
      </trkpt>
      <trkpt lat="43.23593" lon="6.3464">
        <ele>410</ele>
        <time>2019-02-24T14:13:33Z</time>
      </trkpt>
      <trkpt lat="43.23589" lon="6.34638">
        <ele>410</ele>
        <time>2019-02-24T14:13:39Z</time>
      </trkpt>
      <trkpt lat="43.23586" lon="6.34634">
        <ele>409</ele>
        <time>2019-02-24T14:13:45Z</time>
      </trkpt>
      <trkpt lat="43.23583" lon="6.34631">
        <ele>408</ele>
        <time>2019-02-24T14:13:50Z</time>
      </trkpt>
      <trkpt lat="43.23581" lon="6.34626">
        <ele>408</ele>
        <time>2019-02-24T14:13:54Z</time>
      </trkpt>
      <trkpt lat="43.23582" lon="6.34619">
        <ele>407</ele>
        <time>2019-02-24T14:13:59Z</time>
      </trkpt>
      <trkpt lat="43.23581" lon="6.3461">
        <ele>407</ele>
        <time>2019-02-24T14:16:12Z</time>
      </trkpt>
      <trkpt lat="43.23578" lon="6.34602">
        <ele>407</ele>
        <time>2019-02-24T14:18:49Z</time>
      </trkpt>
      <trkpt lat="43.23576" lon="6.34593">
        <ele>407</ele>
        <time>2019-02-24T14:19:00Z</time>
      </trkpt>
      <trkpt lat="43.23568" lon="6.34591">
        <ele>406</ele>
        <time>2019-02-24T14:19:09Z</time>
      </trkpt>
      <trkpt lat="43.23562" lon="6.3459">
        <ele>404</ele>
        <time>2019-02-24T14:19:14Z</time>
      </trkpt>
      <trkpt lat="43.2354" lon="6.34603">
        <ele>402</ele>
        <time>2019-02-24T14:19:35Z</time>
      </trkpt>
      <trkpt lat="43.23535" lon="6.3461">
        <ele>402</ele>
        <time>2019-02-24T14:19:42Z</time>
      </trkpt>
      <trkpt lat="43.23528" lon="6.34614">
        <ele>401</ele>
        <time>2019-02-24T14:19:49Z</time>
      </trkpt>
      <trkpt lat="43.23515" lon="6.34621">
        <ele>398</ele>
        <time>2019-02-24T14:20:01Z</time>
      </trkpt>
      <trkpt lat="43.23509" lon="6.34622">
        <ele>397</ele>
        <time>2019-02-24T14:20:08Z</time>
      </trkpt>
      <trkpt lat="43.23496" lon="6.34617">
        <ele>395</ele>
        <time>2019-02-24T14:20:19Z</time>
      </trkpt>
      <trkpt lat="43.23483" lon="6.34607">
        <ele>395</ele>
        <time>2019-02-24T14:20:31Z</time>
      </trkpt>
      <trkpt lat="43.23477" lon="6.34599">
        <ele>395</ele>
        <time>2019-02-24T14:20:39Z</time>
      </trkpt>
      <trkpt lat="43.23474" lon="6.34591">
        <ele>395</ele>
        <time>2019-02-24T14:20:45Z</time>
      </trkpt>
      <trkpt lat="43.23468" lon="6.34585">
        <ele>394</ele>
        <time>2019-02-24T14:20:52Z</time>
      </trkpt>
      <trkpt lat="43.23464" lon="6.34594">
        <ele>393</ele>
        <time>2019-02-24T14:20:59Z</time>
      </trkpt>
      <trkpt lat="43.23466" lon="6.34602">
        <ele>391</ele>
        <time>2019-02-24T14:21:04Z</time>
      </trkpt>
      <trkpt lat="43.2347" lon="6.34606">
        <ele>390</ele>
        <time>2019-02-24T14:21:09Z</time>
      </trkpt>
      <trkpt lat="43.23481" lon="6.34622">
        <ele>388</ele>
        <time>2019-02-24T14:21:23Z</time>
      </trkpt>
      <trkpt lat="43.23503" lon="6.34651">
        <ele>387</ele>
        <time>2019-02-24T14:21:49Z</time>
      </trkpt>
      <trkpt lat="43.23507" lon="6.34654">
        <ele>387</ele>
        <time>2019-02-24T14:21:54Z</time>
      </trkpt>
      <trkpt lat="43.23521" lon="6.34654">
        <ele>387</ele>
        <time>2019-02-24T14:22:05Z</time>
      </trkpt>
      <trkpt lat="43.23528" lon="6.3465">
        <ele>387</ele>
        <time>2019-02-24T14:22:11Z</time>
      </trkpt>
      <trkpt lat="43.23539" lon="6.34635">
        <ele>387</ele>
        <time>2019-02-24T14:22:29Z</time>
      </trkpt>
      <trkpt lat="43.23546" lon="6.34631">
        <ele>387</ele>
        <time>2019-02-24T14:22:36Z</time>
      </trkpt>
      <trkpt lat="43.23554" lon="6.34634">
        <ele>388</ele>
        <time>2019-02-24T14:22:44Z</time>
      </trkpt>
      <trkpt lat="43.23564" lon="6.34672">
        <ele>385</ele>
        <time>2019-02-24T14:23:09Z</time>
      </trkpt>
      <trkpt lat="43.23566" lon="6.34682">
        <ele>384</ele>
        <time>2019-02-24T14:23:16Z</time>
      </trkpt>
      <trkpt lat="43.23569" lon="6.34698">
        <ele>381</ele>
        <time>2019-02-24T14:23:24Z</time>
      </trkpt>
      <trkpt lat="43.23572" lon="6.34705">
        <ele>381</ele>
        <time>2019-02-24T14:23:29Z</time>
      </trkpt>
      <trkpt lat="43.23578" lon="6.34709">
        <ele>382</ele>
        <time>2019-02-24T14:23:35Z</time>
      </trkpt>
      <trkpt lat="43.23608" lon="6.34717">
        <ele>387</ele>
        <time>2019-02-24T14:23:58Z</time>
      </trkpt>
      <trkpt lat="43.23646" lon="6.34744">
        <ele>389</ele>
        <time>2019-02-24T14:24:33Z</time>
      </trkpt>
      <trkpt lat="43.23652" lon="6.34751">
        <ele>389</ele>
        <time>2019-02-24T14:24:39Z</time>
      </trkpt>
      <trkpt lat="43.23659" lon="6.34755">
        <ele>389</ele>
        <time>2019-02-24T14:24:44Z</time>
      </trkpt>
      <trkpt lat="43.23664" lon="6.34764">
        <ele>387</ele>
        <time>2019-02-24T14:24:50Z</time>
      </trkpt>
      <trkpt lat="43.23668" lon="6.34773">
        <ele>386</ele>
        <time>2019-02-24T14:24:56Z</time>
      </trkpt>
      <trkpt lat="43.23673" lon="6.34781">
        <ele>385</ele>
        <time>2019-02-24T14:25:03Z</time>
      </trkpt>
      <trkpt lat="43.2368" lon="6.34798">
        <ele>382</ele>
        <time>2019-02-24T14:25:15Z</time>
      </trkpt>
      <trkpt lat="43.23684" lon="6.34815">
        <ele>382</ele>
        <time>2019-02-24T14:25:24Z</time>
      </trkpt>
      <trkpt lat="43.23687" lon="6.34824">
        <ele>382</ele>
        <time>2019-02-24T14:25:30Z</time>
      </trkpt>
      <trkpt lat="43.2369" lon="6.34832">
        <ele>382</ele>
        <time>2019-02-24T14:25:38Z</time>
      </trkpt>
      <trkpt lat="43.23696" lon="6.34836">
        <ele>381</ele>
        <time>2019-02-24T14:25:43Z</time>
      </trkpt>
      <trkpt lat="43.23702" lon="6.34843">
        <ele>380</ele>
        <time>2019-02-24T14:25:49Z</time>
      </trkpt>
      <trkpt lat="43.23715" lon="6.34852">
        <ele>380</ele>
        <time>2019-02-24T14:26:01Z</time>
      </trkpt>
      <trkpt lat="43.23725" lon="6.34863">
        <ele>379</ele>
        <time>2019-02-24T14:26:11Z</time>
      </trkpt>
      <trkpt lat="43.23729" lon="6.3487">
        <ele>378</ele>
        <time>2019-02-24T14:26:16Z</time>
      </trkpt>
      <trkpt lat="43.23732" lon="6.34887">
        <ele>376</ele>
        <time>2019-02-24T14:26:27Z</time>
      </trkpt>
      <trkpt lat="43.2373" lon="6.34922">
        <ele>373</ele>
        <time>2019-02-24T14:26:47Z</time>
      </trkpt>
      <trkpt lat="43.23724" lon="6.34947">
        <ele>372</ele>
        <time>2019-02-24T14:27:05Z</time>
      </trkpt>
      <trkpt lat="43.23713" lon="6.34971">
        <ele>372</ele>
        <time>2019-02-24T14:27:19Z</time>
      </trkpt>
      <trkpt lat="43.237" lon="6.34993">
        <ele>371</ele>
        <time>2019-02-24T14:27:35Z</time>
      </trkpt>
      <trkpt lat="43.23693" lon="6.3501">
        <ele>371</ele>
        <time>2019-02-24T14:27:45Z</time>
      </trkpt>
      <trkpt lat="43.2369" lon="6.35018">
        <ele>371</ele>
        <time>2019-02-24T14:27:50Z</time>
      </trkpt>
      <trkpt lat="43.2369" lon="6.35027">
        <ele>371</ele>
        <time>2019-02-24T14:27:56Z</time>
      </trkpt>
      <trkpt lat="43.23692" lon="6.35042">
        <ele>370</ele>
        <time>2019-02-24T14:28:05Z</time>
      </trkpt>
      <trkpt lat="43.23702" lon="6.35081">
        <ele>372</ele>
        <time>2019-02-24T14:28:31Z</time>
      </trkpt>
      <trkpt lat="43.23707" lon="6.35098">
        <ele>370</ele>
        <time>2019-02-24T14:28:42Z</time>
      </trkpt>
      <trkpt lat="43.23708" lon="6.35107">
        <ele>369</ele>
        <time>2019-02-24T14:28:48Z</time>
      </trkpt>
      <trkpt lat="43.23708" lon="6.35117">
        <ele>367</ele>
        <time>2019-02-24T14:28:53Z</time>
      </trkpt>
      <trkpt lat="43.23707" lon="6.35142">
        <ele>365</ele>
        <time>2019-02-24T14:29:09Z</time>
      </trkpt>
      <trkpt lat="43.23705" lon="6.35152">
        <ele>365</ele>
        <time>2019-02-24T14:29:15Z</time>
      </trkpt>
      <trkpt lat="43.23702" lon="6.3516">
        <ele>365</ele>
        <time>2019-02-24T14:29:20Z</time>
      </trkpt>
      <trkpt lat="43.237" lon="6.35169">
        <ele>366</ele>
        <time>2019-02-24T14:29:25Z</time>
      </trkpt>
      <trkpt lat="43.23692" lon="6.35185">
        <ele>365</ele>
        <time>2019-02-24T14:29:37Z</time>
      </trkpt>
      <trkpt lat="43.23689" lon="6.35193">
        <ele>364</ele>
        <time>2019-02-24T14:29:42Z</time>
      </trkpt>
      <trkpt lat="43.23686" lon="6.3521">
        <ele>363</ele>
        <time>2019-02-24T14:29:52Z</time>
      </trkpt>
      <trkpt lat="43.23685" lon="6.35219">
        <ele>363</ele>
        <time>2019-02-24T14:29:57Z</time>
      </trkpt>
      <trkpt lat="43.23683" lon="6.35228">
        <ele>364</ele>
        <time>2019-02-24T14:30:03Z</time>
      </trkpt>
      <trkpt lat="43.23683" lon="6.35238">
        <ele>364</ele>
        <time>2019-02-24T14:30:09Z</time>
      </trkpt>
      <trkpt lat="43.23682" lon="6.35248">
        <ele>363</ele>
        <time>2019-02-24T14:30:16Z</time>
      </trkpt>
      <trkpt lat="43.2368" lon="6.35257">
        <ele>363</ele>
        <time>2019-02-24T14:30:21Z</time>
      </trkpt>
      <trkpt lat="43.23671" lon="6.35274">
        <ele>363</ele>
        <time>2019-02-24T14:30:32Z</time>
      </trkpt>
      <trkpt lat="43.23666" lon="6.35291">
        <ele>363</ele>
        <time>2019-02-24T14:30:44Z</time>
      </trkpt>
      <trkpt lat="43.23663" lon="6.35346">
        <ele>365</ele>
        <time>2019-02-24T14:31:15Z</time>
      </trkpt>
      <trkpt lat="43.23665" lon="6.35375">
        <ele>364</ele>
        <time>2019-02-24T14:31:31Z</time>
      </trkpt>
      <trkpt lat="43.23669" lon="6.35401">
        <ele>363</ele>
        <time>2019-02-24T14:31:48Z</time>
      </trkpt>
      <trkpt lat="43.23668" lon="6.3541">
        <ele>363</ele>
        <time>2019-02-24T14:31:53Z</time>
      </trkpt>
      <trkpt lat="43.23671" lon="6.35418">
        <ele>362</ele>
        <time>2019-02-24T14:31:59Z</time>
      </trkpt>
      <trkpt lat="43.23678" lon="6.35443">
        <ele>364</ele>
        <time>2019-02-24T14:32:15Z</time>
      </trkpt>
      <trkpt lat="43.23684" lon="6.35468">
        <ele>364</ele>
        <time>2019-02-24T14:32:33Z</time>
      </trkpt>
      <trkpt lat="43.23691" lon="6.35501">
        <ele>362</ele>
        <time>2019-02-24T14:32:54Z</time>
      </trkpt>
      <trkpt lat="43.23692" lon="6.35518">
        <ele>362</ele>
        <time>2019-02-24T14:33:05Z</time>
      </trkpt>
      <trkpt lat="43.23694" lon="6.35526">
        <ele>362</ele>
        <time>2019-02-24T14:33:10Z</time>
      </trkpt>
      <trkpt lat="43.23696" lon="6.35568">
        <ele>360</ele>
        <time>2019-02-24T14:33:35Z</time>
      </trkpt>
      <trkpt lat="43.23694" lon="6.35593">
        <ele>358</ele>
        <time>2019-02-24T14:33:52Z</time>
      </trkpt>
      <trkpt lat="43.23694" lon="6.35602">
        <ele>358</ele>
        <time>2019-02-24T14:33:57Z</time>
      </trkpt>
      <trkpt lat="43.23698" lon="6.35611">
        <ele>360</ele>
        <time>2019-02-24T14:34:04Z</time>
      </trkpt>
      <trkpt lat="43.23703" lon="6.35613">
        <ele>361</ele>
        <time>2019-02-24T14:34:09Z</time>
      </trkpt>
      <trkpt lat="43.23718" lon="6.35607">
        <ele>359</ele>
        <time>2019-02-24T14:34:21Z</time>
      </trkpt>
      <trkpt lat="43.23736" lon="6.35593">
        <ele>359</ele>
        <time>2019-02-24T14:34:38Z</time>
      </trkpt>
      <trkpt lat="43.23768" lon="6.35565">
        <ele>357</ele>
        <time>2019-02-24T14:35:12Z</time>
      </trkpt>
      <trkpt lat="43.23781" lon="6.35561">
        <ele>357</ele>
        <time>2019-02-24T14:35:25Z</time>
      </trkpt>
      <trkpt lat="43.23786" lon="6.35565">
        <ele>357</ele>
        <time>2019-02-24T14:35:32Z</time>
      </trkpt>
      <trkpt lat="43.23789" lon="6.3557">
        <ele>354</ele>
        <time>2019-02-24T14:35:37Z</time>
      </trkpt>
      <trkpt lat="43.23791" lon="6.35578">
        <ele>353</ele>
        <time>2019-02-24T14:35:43Z</time>
      </trkpt>
      <trkpt lat="43.23797" lon="6.35594">
        <ele>354</ele>
        <time>2019-02-24T14:35:58Z</time>
      </trkpt>
    </trkseg>
  </trk>
</gpx>